<?xml version="1.0" encoding="UTF-8" standalone="no" ?>
<gpx xmlns="http://www.topografix.com/GPX/1/1" xmlns:xsi="http://www.w3.org/2001/XMLSchema-instance" xsi:schemaLocation="http://www.topografix.com/GPX/1/1 http://www.topografix.com/GPX/1/1/gpx.xsd" version="1.1" creator="VisuGPX - https://www.visugpx.com">
  <metadata>
    <name> Montjoie (D) 2015 (Nov)</name>
    <desc><![CDATA[Marché de noël en Allemagne chouette petit marché à faire  ]]></desc>
  </metadata>
  <trk>
    <name><![CDATA[duo choupy & scooby]]></name>
    <trkseg>
      <trkpt lat="50.55478" lon="6.24587">
        <ele>379</ele>
        <time>2015-11-28T10:19:07Z</time>
      </trkpt>
      <trkpt lat="50.55481" lon="6.24578">
        <ele>380</ele>
        <time>2015-11-28T10:19:17Z</time>
      </trkpt>
      <trkpt lat="50.55489" lon="6.24573">
        <ele>382</ele>
        <time>2015-11-28T10:19:28Z</time>
      </trkpt>
      <trkpt lat="50.55496" lon="6.24597">
        <ele>382</ele>
        <time>2015-11-28T10:19:40Z</time>
      </trkpt>
      <trkpt lat="50.555" lon="6.24593">
        <ele>382</ele>
        <time>2015-11-28T10:19:50Z</time>
      </trkpt>
      <trkpt lat="50.55505" lon="6.24587">
        <ele>382</ele>
        <time>2015-11-28T10:20:00Z</time>
      </trkpt>
      <trkpt lat="50.55506" lon="6.24569">
        <ele>381</ele>
        <time>2015-11-28T10:20:10Z</time>
      </trkpt>
      <trkpt lat="50.55507" lon="6.24548">
        <ele>382</ele>
        <time>2015-11-28T10:20:20Z</time>
      </trkpt>
      <trkpt lat="50.5551" lon="6.24529">
        <ele>380</ele>
        <time>2015-11-28T10:20:30Z</time>
      </trkpt>
      <trkpt lat="50.55514" lon="6.24509">
        <ele>379</ele>
        <time>2015-11-28T10:20:41Z</time>
      </trkpt>
      <trkpt lat="50.55517" lon="6.24491">
        <ele>380</ele>
        <time>2015-11-28T10:20:51Z</time>
      </trkpt>
      <trkpt lat="50.55521" lon="6.24478">
        <ele>378</ele>
        <time>2015-11-28T10:21:01Z</time>
      </trkpt>
      <trkpt lat="50.55522" lon="6.2448">
        <ele>379</ele>
        <time>2015-11-28T10:21:12Z</time>
      </trkpt>
      <trkpt lat="50.55526" lon="6.24475">
        <ele>378</ele>
        <time>2015-11-28T10:21:22Z</time>
      </trkpt>
      <trkpt lat="50.55524" lon="6.24464">
        <ele>378</ele>
        <time>2015-11-28T10:21:32Z</time>
      </trkpt>
      <trkpt lat="50.55527" lon="6.24457">
        <ele>378</ele>
        <time>2015-11-28T10:21:42Z</time>
      </trkpt>
      <trkpt lat="50.55526" lon="6.24441">
        <ele>378</ele>
        <time>2015-11-28T10:21:52Z</time>
      </trkpt>
      <trkpt lat="50.55523" lon="6.24425">
        <ele>378</ele>
        <time>2015-11-28T10:22:03Z</time>
      </trkpt>
      <trkpt lat="50.55521" lon="6.24402">
        <ele>378</ele>
        <time>2015-11-28T10:22:13Z</time>
      </trkpt>
      <trkpt lat="50.55519" lon="6.24392">
        <ele>378</ele>
        <time>2015-11-28T10:22:23Z</time>
      </trkpt>
      <trkpt lat="50.55518" lon="6.24382">
        <ele>378</ele>
        <time>2015-11-28T10:22:34Z</time>
      </trkpt>
      <trkpt lat="50.55516" lon="6.2439">
        <ele>378</ele>
        <time>2015-11-28T10:22:44Z</time>
      </trkpt>
      <trkpt lat="50.55518" lon="6.244">
        <ele>378</ele>
        <time>2015-11-28T10:22:55Z</time>
      </trkpt>
      <trkpt lat="50.5552" lon="6.24405">
        <ele>378</ele>
        <time>2015-11-28T10:23:06Z</time>
      </trkpt>
      <trkpt lat="50.55523" lon="6.24407">
        <ele>378</ele>
        <time>2015-11-28T10:23:16Z</time>
      </trkpt>
      <trkpt lat="50.55523" lon="6.24412">
        <ele>378</ele>
        <time>2015-11-28T10:23:27Z</time>
      </trkpt>
      <trkpt lat="50.55527" lon="6.24411">
        <ele>378</ele>
        <time>2015-11-28T10:23:37Z</time>
      </trkpt>
      <trkpt lat="50.55529" lon="6.24401">
        <ele>378</ele>
        <time>2015-11-28T10:23:48Z</time>
      </trkpt>
      <trkpt lat="50.55533" lon="6.24387">
        <ele>378</ele>
        <time>2015-11-28T10:23:59Z</time>
      </trkpt>
      <trkpt lat="50.55535" lon="6.24369">
        <ele>378</ele>
        <time>2015-11-28T10:24:10Z</time>
      </trkpt>
      <trkpt lat="50.55537" lon="6.24357">
        <ele>378</ele>
        <time>2015-11-28T10:24:21Z</time>
      </trkpt>
      <trkpt lat="50.55542" lon="6.24341">
        <ele>377</ele>
        <time>2015-11-28T10:24:32Z</time>
      </trkpt>
      <trkpt lat="50.55546" lon="6.24331">
        <ele>378</ele>
        <time>2015-11-28T10:24:42Z</time>
      </trkpt>
      <trkpt lat="50.55551" lon="6.24326">
        <ele>378</ele>
        <time>2015-11-28T10:24:52Z</time>
      </trkpt>
      <trkpt lat="50.55556" lon="6.24333">
        <ele>378</ele>
        <time>2015-11-28T10:25:02Z</time>
      </trkpt>
      <trkpt lat="50.55557" lon="6.24329">
        <ele>379</ele>
        <time>2015-11-28T10:25:12Z</time>
      </trkpt>
      <trkpt lat="50.55554" lon="6.24309">
        <ele>379</ele>
        <time>2015-11-28T10:25:23Z</time>
      </trkpt>
      <trkpt lat="50.55553" lon="6.24282">
        <ele>379</ele>
        <time>2015-11-28T10:25:33Z</time>
      </trkpt>
      <trkpt lat="50.55554" lon="6.24266">
        <ele>380</ele>
        <time>2015-11-28T10:25:43Z</time>
      </trkpt>
      <trkpt lat="50.5555" lon="6.24255">
        <ele>380</ele>
        <time>2015-11-28T10:25:53Z</time>
      </trkpt>
      <trkpt lat="50.55547" lon="6.24229">
        <ele>380</ele>
        <time>2015-11-28T10:26:04Z</time>
      </trkpt>
      <trkpt lat="50.55546" lon="6.24218">
        <ele>379</ele>
        <time>2015-11-28T10:26:14Z</time>
      </trkpt>
      <trkpt lat="50.55543" lon="6.24205">
        <ele>380</ele>
        <time>2015-11-28T10:26:25Z</time>
      </trkpt>
      <trkpt lat="50.55543" lon="6.2419">
        <ele>380</ele>
        <time>2015-11-28T10:26:35Z</time>
      </trkpt>
      <trkpt lat="50.55546" lon="6.24189">
        <ele>380</ele>
        <time>2015-11-28T10:26:45Z</time>
      </trkpt>
      <trkpt lat="50.5554" lon="6.24194">
        <ele>380</ele>
        <time>2015-11-28T10:26:56Z</time>
      </trkpt>
      <trkpt lat="50.55534" lon="6.24198">
        <ele>380</ele>
        <time>2015-11-28T10:27:06Z</time>
      </trkpt>
      <trkpt lat="50.55527" lon="6.24194">
        <ele>380</ele>
        <time>2015-11-28T10:27:17Z</time>
      </trkpt>
      <trkpt lat="50.55527" lon="6.24199">
        <ele>380</ele>
        <time>2015-11-28T10:27:27Z</time>
      </trkpt>
      <trkpt lat="50.55525" lon="6.2421">
        <ele>379</ele>
        <time>2015-11-28T10:27:38Z</time>
      </trkpt>
      <trkpt lat="50.55523" lon="6.24214">
        <ele>379</ele>
        <time>2015-11-28T10:27:48Z</time>
      </trkpt>
      <trkpt lat="50.55521" lon="6.24219">
        <ele>379</ele>
        <time>2015-11-28T10:27:58Z</time>
      </trkpt>
      <trkpt lat="50.55524" lon="6.24225">
        <ele>379</ele>
        <time>2015-11-28T10:28:09Z</time>
      </trkpt>
      <trkpt lat="50.55527" lon="6.24229">
        <ele>379</ele>
        <time>2015-11-28T10:28:19Z</time>
      </trkpt>
      <trkpt lat="50.55528" lon="6.24236">
        <ele>379</ele>
        <time>2015-11-28T10:28:29Z</time>
      </trkpt>
      <trkpt lat="50.55526" lon="6.24243">
        <ele>379</ele>
        <time>2015-11-28T10:28:39Z</time>
      </trkpt>
      <trkpt lat="50.55526" lon="6.24248">
        <ele>379</ele>
        <time>2015-11-28T10:28:50Z</time>
      </trkpt>
      <trkpt lat="50.55527" lon="6.24247">
        <ele>379</ele>
        <time>2015-11-28T10:29:00Z</time>
      </trkpt>
      <trkpt lat="50.55528" lon="6.24249">
        <ele>379</ele>
        <time>2015-11-28T10:29:10Z</time>
      </trkpt>
      <trkpt lat="50.55528" lon="6.24251">
        <ele>379</ele>
        <time>2015-11-28T10:29:21Z</time>
      </trkpt>
      <trkpt lat="50.55523" lon="6.24251">
        <ele>379</ele>
        <time>2015-11-28T10:29:31Z</time>
      </trkpt>
      <trkpt lat="50.5552" lon="6.2425">
        <ele>379</ele>
        <time>2015-11-28T10:29:41Z</time>
      </trkpt>
      <trkpt lat="50.55519" lon="6.24244">
        <ele>379</ele>
        <time>2015-11-28T10:29:51Z</time>
      </trkpt>
      <trkpt lat="50.55518" lon="6.2424">
        <ele>379</ele>
        <time>2015-11-28T10:30:02Z</time>
      </trkpt>
      <trkpt lat="50.55519" lon="6.24235">
        <ele>379</ele>
        <time>2015-11-28T10:30:13Z</time>
      </trkpt>
      <trkpt lat="50.55519" lon="6.24228">
        <ele>379</ele>
        <time>2015-11-28T10:30:23Z</time>
      </trkpt>
      <trkpt lat="50.55518" lon="6.24221">
        <ele>379</ele>
        <time>2015-11-28T10:30:33Z</time>
      </trkpt>
      <trkpt lat="50.55516" lon="6.24216">
        <ele>379</ele>
        <time>2015-11-28T10:30:43Z</time>
      </trkpt>
      <trkpt lat="50.55513" lon="6.24215">
        <ele>379</ele>
        <time>2015-11-28T10:30:53Z</time>
      </trkpt>
      <trkpt lat="50.55509" lon="6.24215">
        <ele>379</ele>
        <time>2015-11-28T10:31:04Z</time>
      </trkpt>
      <trkpt lat="50.55504" lon="6.24207">
        <ele>380</ele>
        <time>2015-11-28T10:31:15Z</time>
      </trkpt>
      <trkpt lat="50.55503" lon="6.24201">
        <ele>378</ele>
        <time>2015-11-28T10:31:25Z</time>
      </trkpt>
      <trkpt lat="50.55506" lon="6.24198">
        <ele>379</ele>
        <time>2015-11-28T10:31:35Z</time>
      </trkpt>
      <trkpt lat="50.5551" lon="6.24196">
        <ele>378</ele>
        <time>2015-11-28T10:31:45Z</time>
      </trkpt>
      <trkpt lat="50.55511" lon="6.242">
        <ele>378</ele>
        <time>2015-11-28T10:31:56Z</time>
      </trkpt>
      <trkpt lat="50.5551" lon="6.24203">
        <ele>379</ele>
        <time>2015-11-28T10:32:06Z</time>
      </trkpt>
      <trkpt lat="50.55506" lon="6.24197">
        <ele>379</ele>
        <time>2015-11-28T10:32:16Z</time>
      </trkpt>
      <trkpt lat="50.55498" lon="6.24188">
        <ele>379</ele>
        <time>2015-11-28T10:32:27Z</time>
      </trkpt>
      <trkpt lat="50.55493" lon="6.24185">
        <ele>379</ele>
        <time>2015-11-28T10:32:37Z</time>
      </trkpt>
      <trkpt lat="50.55492" lon="6.24185">
        <ele>379</ele>
        <time>2015-11-28T10:32:49Z</time>
      </trkpt>
      <trkpt lat="50.55488" lon="6.24197">
        <ele>379</ele>
        <time>2015-11-28T10:33:00Z</time>
      </trkpt>
      <trkpt lat="50.55488" lon="6.24201">
        <ele>379</ele>
        <time>2015-11-28T10:33:10Z</time>
      </trkpt>
      <trkpt lat="50.55489" lon="6.24208">
        <ele>378</ele>
        <time>2015-11-28T10:33:21Z</time>
      </trkpt>
      <trkpt lat="50.55487" lon="6.24159">
        <ele>379</ele>
        <time>2015-11-28T10:36:57Z</time>
      </trkpt>
      <trkpt lat="50.55488" lon="6.2418">
        <ele>378</ele>
        <time>2015-11-28T10:37:08Z</time>
      </trkpt>
      <trkpt lat="50.55487" lon="6.24184">
        <ele>379</ele>
        <time>2015-11-28T10:37:18Z</time>
      </trkpt>
      <trkpt lat="50.55486" lon="6.24185">
        <ele>379</ele>
        <time>2015-11-28T10:37:29Z</time>
      </trkpt>
      <trkpt lat="50.55484" lon="6.24182">
        <ele>379</ele>
        <time>2015-11-28T10:37:40Z</time>
      </trkpt>
      <trkpt lat="50.5548" lon="6.24178">
        <ele>380</ele>
        <time>2015-11-28T10:37:50Z</time>
      </trkpt>
      <trkpt lat="50.55475" lon="6.2417">
        <ele>379</ele>
        <time>2015-11-28T10:38:00Z</time>
      </trkpt>
      <trkpt lat="50.55468" lon="6.24163">
        <ele>380</ele>
        <time>2015-11-28T10:38:11Z</time>
      </trkpt>
      <trkpt lat="50.55464" lon="6.2416">
        <ele>380</ele>
        <time>2015-11-28T10:38:21Z</time>
      </trkpt>
      <trkpt lat="50.55461" lon="6.24157">
        <ele>379</ele>
        <time>2015-11-28T10:38:32Z</time>
      </trkpt>
      <trkpt lat="50.55462" lon="6.24158">
        <ele>380</ele>
        <time>2015-11-28T10:38:43Z</time>
      </trkpt>
      <trkpt lat="50.55465" lon="6.24159">
        <ele>380</ele>
        <time>2015-11-28T10:38:53Z</time>
      </trkpt>
      <trkpt lat="50.55466" lon="6.24161">
        <ele>380</ele>
        <time>2015-11-28T10:39:03Z</time>
      </trkpt>
      <trkpt lat="50.55465" lon="6.24157">
        <ele>380</ele>
        <time>2015-11-28T10:39:14Z</time>
      </trkpt>
      <trkpt lat="50.55462" lon="6.24151">
        <ele>379</ele>
        <time>2015-11-28T10:39:24Z</time>
      </trkpt>
      <trkpt lat="50.55459" lon="6.24152">
        <ele>380</ele>
        <time>2015-11-28T10:39:35Z</time>
      </trkpt>
      <trkpt lat="50.55454" lon="6.2415">
        <ele>380</ele>
        <time>2015-11-28T10:39:46Z</time>
      </trkpt>
      <trkpt lat="50.55452" lon="6.24152">
        <ele>380</ele>
        <time>2015-11-28T10:39:56Z</time>
      </trkpt>
      <trkpt lat="50.55445" lon="6.24152">
        <ele>380</ele>
        <time>2015-11-28T10:40:07Z</time>
      </trkpt>
      <trkpt lat="50.55439" lon="6.24146">
        <ele>380</ele>
        <time>2015-11-28T10:40:17Z</time>
      </trkpt>
      <trkpt lat="50.55438" lon="6.24142">
        <ele>380</ele>
        <time>2015-11-28T10:40:28Z</time>
      </trkpt>
      <trkpt lat="50.55436" lon="6.24141">
        <ele>380</ele>
        <time>2015-11-28T10:40:39Z</time>
      </trkpt>
      <trkpt lat="50.55432" lon="6.24141">
        <ele>381</ele>
        <time>2015-11-28T10:40:49Z</time>
      </trkpt>
      <trkpt lat="50.55425" lon="6.24139">
        <ele>381</ele>
        <time>2015-11-28T10:41:00Z</time>
      </trkpt>
      <trkpt lat="50.55422" lon="6.24134">
        <ele>381</ele>
        <time>2015-11-28T10:41:10Z</time>
      </trkpt>
      <trkpt lat="50.55421" lon="6.24129">
        <ele>380</ele>
        <time>2015-11-28T10:41:20Z</time>
      </trkpt>
      <trkpt lat="50.55421" lon="6.24128">
        <ele>380</ele>
        <time>2015-11-28T10:41:31Z</time>
      </trkpt>
      <trkpt lat="50.55422" lon="6.24127">
        <ele>380</ele>
        <time>2015-11-28T10:41:41Z</time>
      </trkpt>
      <trkpt lat="50.55419" lon="6.24125">
        <ele>380</ele>
        <time>2015-11-28T10:41:52Z</time>
      </trkpt>
      <trkpt lat="50.55419" lon="6.24122">
        <ele>380</ele>
        <time>2015-11-28T10:42:03Z</time>
      </trkpt>
      <trkpt lat="50.5542" lon="6.24124">
        <ele>380</ele>
        <time>2015-11-28T10:42:13Z</time>
      </trkpt>
      <trkpt lat="50.55423" lon="6.2413">
        <ele>380</ele>
        <time>2015-11-28T10:42:24Z</time>
      </trkpt>
      <trkpt lat="50.55426" lon="6.24139">
        <ele>380</ele>
        <time>2015-11-28T10:42:34Z</time>
      </trkpt>
      <trkpt lat="50.55434" lon="6.24146">
        <ele>381</ele>
        <time>2015-11-28T10:42:45Z</time>
      </trkpt>
      <trkpt lat="50.55438" lon="6.24152">
        <ele>380</ele>
        <time>2015-11-28T10:42:55Z</time>
      </trkpt>
      <trkpt lat="50.5544" lon="6.24153">
        <ele>380</ele>
        <time>2015-11-28T10:43:05Z</time>
      </trkpt>
      <trkpt lat="50.55443" lon="6.24154">
        <ele>380</ele>
        <time>2015-11-28T10:43:16Z</time>
      </trkpt>
      <trkpt lat="50.55442" lon="6.24152">
        <ele>380</ele>
        <time>2015-11-28T10:43:26Z</time>
      </trkpt>
      <trkpt lat="50.55441" lon="6.2415">
        <ele>380</ele>
        <time>2015-11-28T10:43:37Z</time>
      </trkpt>
      <trkpt lat="50.55444" lon="6.24151">
        <ele>380</ele>
        <time>2015-11-28T10:43:47Z</time>
      </trkpt>
      <trkpt lat="50.55444" lon="6.24155">
        <ele>380</ele>
        <time>2015-11-28T10:43:58Z</time>
      </trkpt>
      <trkpt lat="50.55444" lon="6.24156">
        <ele>380</ele>
        <time>2015-11-28T10:44:08Z</time>
      </trkpt>
      <trkpt lat="50.55442" lon="6.24159">
        <ele>380</ele>
        <time>2015-11-28T10:44:18Z</time>
      </trkpt>
      <trkpt lat="50.55442" lon="6.24165">
        <ele>380</ele>
        <time>2015-11-28T10:44:28Z</time>
      </trkpt>
      <trkpt lat="50.55441" lon="6.24164">
        <ele>379</ele>
        <time>2015-11-28T10:44:39Z</time>
      </trkpt>
      <trkpt lat="50.5544" lon="6.24173">
        <ele>380</ele>
        <time>2015-11-28T10:44:49Z</time>
      </trkpt>
      <trkpt lat="50.55441" lon="6.24185">
        <ele>380</ele>
        <time>2015-11-28T10:45:00Z</time>
      </trkpt>
      <trkpt lat="50.55436" lon="6.24184">
        <ele>380</ele>
        <time>2015-11-28T10:45:10Z</time>
      </trkpt>
      <trkpt lat="50.55425" lon="6.2418">
        <ele>380</ele>
        <time>2015-11-28T10:45:21Z</time>
      </trkpt>
      <trkpt lat="50.55418" lon="6.24173">
        <ele>380</ele>
        <time>2015-11-28T10:45:31Z</time>
      </trkpt>
      <trkpt lat="50.55414" lon="6.24168">
        <ele>380</ele>
        <time>2015-11-28T10:45:42Z</time>
      </trkpt>
      <trkpt lat="50.55412" lon="6.24168">
        <ele>380</ele>
        <time>2015-11-28T10:45:52Z</time>
      </trkpt>
      <trkpt lat="50.55416" lon="6.24177">
        <ele>380</ele>
        <time>2015-11-28T10:46:02Z</time>
      </trkpt>
      <trkpt lat="50.55418" lon="6.24182">
        <ele>380</ele>
        <time>2015-11-28T10:46:13Z</time>
      </trkpt>
      <trkpt lat="50.55414" lon="6.24176">
        <ele>380</ele>
        <time>2015-11-28T10:46:24Z</time>
      </trkpt>
      <trkpt lat="50.55413" lon="6.24173">
        <ele>380</ele>
        <time>2015-11-28T10:46:34Z</time>
      </trkpt>
      <trkpt lat="50.55411" lon="6.2417">
        <ele>380</ele>
        <time>2015-11-28T10:46:44Z</time>
      </trkpt>
      <trkpt lat="50.55412" lon="6.24174">
        <ele>380</ele>
        <time>2015-11-28T10:46:54Z</time>
      </trkpt>
      <trkpt lat="50.55411" lon="6.24176">
        <ele>380</ele>
        <time>2015-11-28T10:47:05Z</time>
      </trkpt>
      <trkpt lat="50.55411" lon="6.24179">
        <ele>380</ele>
        <time>2015-11-28T10:47:15Z</time>
      </trkpt>
      <trkpt lat="50.55405" lon="6.24176">
        <ele>380</ele>
        <time>2015-11-28T10:47:26Z</time>
      </trkpt>
      <trkpt lat="50.55407" lon="6.24178">
        <ele>380</ele>
        <time>2015-11-28T10:47:36Z</time>
      </trkpt>
      <trkpt lat="50.55412" lon="6.24182">
        <ele>380</ele>
        <time>2015-11-28T10:47:47Z</time>
      </trkpt>
      <trkpt lat="50.55415" lon="6.24186">
        <ele>381</ele>
        <time>2015-11-28T10:47:58Z</time>
      </trkpt>
      <trkpt lat="50.55414" lon="6.24183">
        <ele>380</ele>
        <time>2015-11-28T10:48:09Z</time>
      </trkpt>
      <trkpt lat="50.5541" lon="6.24177">
        <ele>380</ele>
        <time>2015-11-28T10:48:20Z</time>
      </trkpt>
      <trkpt lat="50.55409" lon="6.24178">
        <ele>380</ele>
        <time>2015-11-28T10:48:30Z</time>
      </trkpt>
      <trkpt lat="50.55405" lon="6.24181">
        <ele>380</ele>
        <time>2015-11-28T10:48:40Z</time>
      </trkpt>
      <trkpt lat="50.55403" lon="6.24185">
        <ele>380</ele>
        <time>2015-11-28T10:48:51Z</time>
      </trkpt>
      <trkpt lat="50.554" lon="6.24189">
        <ele>380</ele>
        <time>2015-11-28T10:49:02Z</time>
      </trkpt>
      <trkpt lat="50.55399" lon="6.24186">
        <ele>380</ele>
        <time>2015-11-28T10:49:12Z</time>
      </trkpt>
      <trkpt lat="50.55397" lon="6.24187">
        <ele>380</ele>
        <time>2015-11-28T10:49:23Z</time>
      </trkpt>
      <trkpt lat="50.55397" lon="6.24189">
        <ele>380</ele>
        <time>2015-11-28T10:49:34Z</time>
      </trkpt>
      <trkpt lat="50.55395" lon="6.24192">
        <ele>380</ele>
        <time>2015-11-28T10:49:44Z</time>
      </trkpt>
      <trkpt lat="50.55392" lon="6.24194">
        <ele>380</ele>
        <time>2015-11-28T10:49:55Z</time>
      </trkpt>
      <trkpt lat="50.55388" lon="6.24189">
        <ele>380</ele>
        <time>2015-11-28T10:50:06Z</time>
      </trkpt>
      <trkpt lat="50.55386" lon="6.24184">
        <ele>380</ele>
        <time>2015-11-28T10:50:17Z</time>
      </trkpt>
      <trkpt lat="50.55386" lon="6.24184">
        <ele>380</ele>
        <time>2015-11-28T10:50:27Z</time>
      </trkpt>
      <trkpt lat="50.55388" lon="6.24186">
        <ele>380</ele>
        <time>2015-11-28T10:50:38Z</time>
      </trkpt>
      <trkpt lat="50.55387" lon="6.24183">
        <ele>380</ele>
        <time>2015-11-28T10:50:48Z</time>
      </trkpt>
      <trkpt lat="50.55389" lon="6.24187">
        <ele>380</ele>
        <time>2015-11-28T10:50:59Z</time>
      </trkpt>
      <trkpt lat="50.5539" lon="6.24191">
        <ele>380</ele>
        <time>2015-11-28T10:51:09Z</time>
      </trkpt>
      <trkpt lat="50.55393" lon="6.24191">
        <ele>380</ele>
        <time>2015-11-28T10:51:20Z</time>
      </trkpt>
      <trkpt lat="50.55392" lon="6.24196">
        <ele>380</ele>
        <time>2015-11-28T10:51:30Z</time>
      </trkpt>
      <trkpt lat="50.55393" lon="6.24195">
        <ele>380</ele>
        <time>2015-11-28T10:51:40Z</time>
      </trkpt>
      <trkpt lat="50.55393" lon="6.24193">
        <ele>380</ele>
        <time>2015-11-28T10:51:51Z</time>
      </trkpt>
      <trkpt lat="50.55391" lon="6.2419">
        <ele>380</ele>
        <time>2015-11-28T10:52:01Z</time>
      </trkpt>
      <trkpt lat="50.55387" lon="6.24184">
        <ele>379</ele>
        <time>2015-11-28T10:52:12Z</time>
      </trkpt>
      <trkpt lat="50.55386" lon="6.24186">
        <ele>381</ele>
        <time>2015-11-28T10:52:22Z</time>
      </trkpt>
      <trkpt lat="50.55389" lon="6.24184">
        <ele>380</ele>
        <time>2015-11-28T10:52:33Z</time>
      </trkpt>
      <trkpt lat="50.55391" lon="6.24187">
        <ele>380</ele>
        <time>2015-11-28T10:52:43Z</time>
      </trkpt>
      <trkpt lat="50.55391" lon="6.24184">
        <ele>380</ele>
        <time>2015-11-28T10:52:53Z</time>
      </trkpt>
      <trkpt lat="50.55393" lon="6.24183">
        <ele>380</ele>
        <time>2015-11-28T10:53:04Z</time>
      </trkpt>
      <trkpt lat="50.55397" lon="6.24184">
        <ele>380</ele>
        <time>2015-11-28T10:53:15Z</time>
      </trkpt>
      <trkpt lat="50.55397" lon="6.24182">
        <ele>380</ele>
        <time>2015-11-28T10:53:25Z</time>
      </trkpt>
      <trkpt lat="50.55394" lon="6.24182">
        <ele>380</ele>
        <time>2015-11-28T10:53:35Z</time>
      </trkpt>
      <trkpt lat="50.55394" lon="6.24173">
        <ele>381</ele>
        <time>2015-11-28T10:53:46Z</time>
      </trkpt>
      <trkpt lat="50.55388" lon="6.24138">
        <ele>382</ele>
        <time>2015-11-28T10:53:56Z</time>
      </trkpt>
      <trkpt lat="50.55402" lon="6.24145">
        <ele>382</ele>
        <time>2015-11-28T10:54:07Z</time>
      </trkpt>
      <trkpt lat="50.55408" lon="6.24158">
        <ele>382</ele>
        <time>2015-11-28T10:54:17Z</time>
      </trkpt>
      <trkpt lat="50.55398" lon="6.24168">
        <ele>382</ele>
        <time>2015-11-28T10:54:28Z</time>
      </trkpt>
      <trkpt lat="50.55393" lon="6.24187">
        <ele>382</ele>
        <time>2015-11-28T10:54:39Z</time>
      </trkpt>
      <trkpt lat="50.55392" lon="6.24183">
        <ele>382</ele>
        <time>2015-11-28T10:54:49Z</time>
      </trkpt>
      <trkpt lat="50.55395" lon="6.24187">
        <ele>382</ele>
        <time>2015-11-28T10:54:59Z</time>
      </trkpt>
      <trkpt lat="50.55397" lon="6.24192">
        <ele>382</ele>
        <time>2015-11-28T10:55:10Z</time>
      </trkpt>
      <trkpt lat="50.55396" lon="6.24196">
        <ele>382</ele>
        <time>2015-11-28T10:55:21Z</time>
      </trkpt>
      <trkpt lat="50.55399" lon="6.24186">
        <ele>382</ele>
        <time>2015-11-28T10:55:31Z</time>
      </trkpt>
      <trkpt lat="50.55398" lon="6.24183">
        <ele>382</ele>
        <time>2015-11-28T10:55:42Z</time>
      </trkpt>
      <trkpt lat="50.55399" lon="6.2418">
        <ele>382</ele>
        <time>2015-11-28T10:55:52Z</time>
      </trkpt>
      <trkpt lat="50.55396" lon="6.24178">
        <ele>382</ele>
        <time>2015-11-28T10:56:02Z</time>
      </trkpt>
      <trkpt lat="50.55395" lon="6.24177">
        <ele>382</ele>
        <time>2015-11-28T10:56:13Z</time>
      </trkpt>
      <trkpt lat="50.55394" lon="6.24182">
        <ele>382</ele>
        <time>2015-11-28T10:56:23Z</time>
      </trkpt>
      <trkpt lat="50.55398" lon="6.24194">
        <ele>382</ele>
        <time>2015-11-28T10:56:34Z</time>
      </trkpt>
      <trkpt lat="50.55404" lon="6.24201">
        <ele>382</ele>
        <time>2015-11-28T10:56:44Z</time>
      </trkpt>
      <trkpt lat="50.55402" lon="6.24197">
        <ele>382</ele>
        <time>2015-11-28T10:56:54Z</time>
      </trkpt>
      <trkpt lat="50.55396" lon="6.24198">
        <ele>382</ele>
        <time>2015-11-28T10:57:04Z</time>
      </trkpt>
      <trkpt lat="50.55413" lon="6.24194">
        <ele>382</ele>
        <time>2015-11-28T10:57:14Z</time>
      </trkpt>
      <trkpt lat="50.55415" lon="6.24194">
        <ele>382</ele>
        <time>2015-11-28T10:57:24Z</time>
      </trkpt>
      <trkpt lat="50.55412" lon="6.24196">
        <ele>382</ele>
        <time>2015-11-28T10:57:35Z</time>
      </trkpt>
      <trkpt lat="50.55407" lon="6.24186">
        <ele>381</ele>
        <time>2015-11-28T10:57:45Z</time>
      </trkpt>
      <trkpt lat="50.55409" lon="6.24181">
        <ele>380</ele>
        <time>2015-11-28T10:57:55Z</time>
      </trkpt>
      <trkpt lat="50.55411" lon="6.2418">
        <ele>380</ele>
        <time>2015-11-28T10:58:06Z</time>
      </trkpt>
      <trkpt lat="50.55414" lon="6.24185">
        <ele>380</ele>
        <time>2015-11-28T10:58:16Z</time>
      </trkpt>
      <trkpt lat="50.55414" lon="6.24192">
        <ele>379</ele>
        <time>2015-11-28T10:58:27Z</time>
      </trkpt>
      <trkpt lat="50.55413" lon="6.24191">
        <ele>380</ele>
        <time>2015-11-28T10:58:38Z</time>
      </trkpt>
      <trkpt lat="50.55415" lon="6.24185">
        <ele>380</ele>
        <time>2015-11-28T10:58:49Z</time>
      </trkpt>
      <trkpt lat="50.55412" lon="6.24179">
        <ele>380</ele>
        <time>2015-11-28T10:58:59Z</time>
      </trkpt>
      <trkpt lat="50.55414" lon="6.24181">
        <ele>380</ele>
        <time>2015-11-28T10:59:10Z</time>
      </trkpt>
      <trkpt lat="50.55413" lon="6.24182">
        <ele>380</ele>
        <time>2015-11-28T10:59:21Z</time>
      </trkpt>
      <trkpt lat="50.55414" lon="6.24182">
        <ele>380</ele>
        <time>2015-11-28T10:59:32Z</time>
      </trkpt>
      <trkpt lat="50.55414" lon="6.24177">
        <ele>380</ele>
        <time>2015-11-28T10:59:43Z</time>
      </trkpt>
      <trkpt lat="50.55414" lon="6.24174">
        <ele>380</ele>
        <time>2015-11-28T10:59:53Z</time>
      </trkpt>
      <trkpt lat="50.55414" lon="6.24172">
        <ele>380</ele>
        <time>2015-11-28T11:00:04Z</time>
      </trkpt>
      <trkpt lat="50.55413" lon="6.24173">
        <ele>380</ele>
        <time>2015-11-28T11:00:15Z</time>
      </trkpt>
      <trkpt lat="50.55412" lon="6.24179">
        <ele>380</ele>
        <time>2015-11-28T11:00:25Z</time>
      </trkpt>
      <trkpt lat="50.55412" lon="6.24179">
        <ele>380</ele>
        <time>2015-11-28T11:00:36Z</time>
      </trkpt>
      <trkpt lat="50.55412" lon="6.24179">
        <ele>380</ele>
        <time>2015-11-28T11:00:46Z</time>
      </trkpt>
      <trkpt lat="50.55415" lon="6.24177">
        <ele>380</ele>
        <time>2015-11-28T11:00:56Z</time>
      </trkpt>
      <trkpt lat="50.55416" lon="6.24176">
        <ele>380</ele>
        <time>2015-11-28T11:01:07Z</time>
      </trkpt>
      <trkpt lat="50.55416" lon="6.24176">
        <ele>380</ele>
        <time>2015-11-28T11:01:18Z</time>
      </trkpt>
      <trkpt lat="50.55423" lon="6.2418">
        <ele>380</ele>
        <time>2015-11-28T11:01:29Z</time>
      </trkpt>
      <trkpt lat="50.5543" lon="6.24181">
        <ele>380</ele>
        <time>2015-11-28T11:01:39Z</time>
      </trkpt>
      <trkpt lat="50.55433" lon="6.24177">
        <ele>380</ele>
        <time>2015-11-28T11:01:49Z</time>
      </trkpt>
      <trkpt lat="50.55438" lon="6.24166">
        <ele>380</ele>
        <time>2015-11-28T11:01:59Z</time>
      </trkpt>
      <trkpt lat="50.55441" lon="6.2416">
        <ele>380</ele>
        <time>2015-11-28T11:02:10Z</time>
      </trkpt>
      <trkpt lat="50.55441" lon="6.24156">
        <ele>379</ele>
        <time>2015-11-28T11:02:20Z</time>
      </trkpt>
      <trkpt lat="50.55444" lon="6.24148">
        <ele>380</ele>
        <time>2015-11-28T11:02:31Z</time>
      </trkpt>
      <trkpt lat="50.55443" lon="6.24146">
        <ele>379</ele>
        <time>2015-11-28T11:02:43Z</time>
      </trkpt>
      <trkpt lat="50.5544" lon="6.24142">
        <ele>379</ele>
        <time>2015-11-28T11:02:53Z</time>
      </trkpt>
      <trkpt lat="50.55437" lon="6.24141">
        <ele>379</ele>
        <time>2015-11-28T11:03:04Z</time>
      </trkpt>
      <trkpt lat="50.55434" lon="6.24141">
        <ele>380</ele>
        <time>2015-11-28T11:03:15Z</time>
      </trkpt>
      <trkpt lat="50.55432" lon="6.24135">
        <ele>380</ele>
        <time>2015-11-28T11:03:26Z</time>
      </trkpt>
      <trkpt lat="50.55425" lon="6.24128">
        <ele>380</ele>
        <time>2015-11-28T11:03:37Z</time>
      </trkpt>
      <trkpt lat="50.55421" lon="6.2412">
        <ele>380</ele>
        <time>2015-11-28T11:03:48Z</time>
      </trkpt>
      <trkpt lat="50.55423" lon="6.24112">
        <ele>379</ele>
        <time>2015-11-28T11:03:58Z</time>
      </trkpt>
      <trkpt lat="50.55418" lon="6.24109">
        <ele>380</ele>
        <time>2015-11-28T11:04:09Z</time>
      </trkpt>
      <trkpt lat="50.55415" lon="6.24104">
        <ele>379</ele>
        <time>2015-11-28T11:04:19Z</time>
      </trkpt>
      <trkpt lat="50.55409" lon="6.24093">
        <ele>379</ele>
        <time>2015-11-28T11:04:30Z</time>
      </trkpt>
      <trkpt lat="50.55414" lon="6.241">
        <ele>379</ele>
        <time>2015-11-28T11:04:40Z</time>
      </trkpt>
      <trkpt lat="50.55415" lon="6.24107">
        <ele>379</ele>
        <time>2015-11-28T11:04:50Z</time>
      </trkpt>
      <trkpt lat="50.55415" lon="6.24113">
        <ele>379</ele>
        <time>2015-11-28T11:05:00Z</time>
      </trkpt>
      <trkpt lat="50.55416" lon="6.24108">
        <ele>379</ele>
        <time>2015-11-28T11:05:10Z</time>
      </trkpt>
      <trkpt lat="50.5542" lon="6.2411">
        <ele>379</ele>
        <time>2015-11-28T11:05:21Z</time>
      </trkpt>
      <trkpt lat="50.55433" lon="6.24112">
        <ele>379</ele>
        <time>2015-11-28T11:05:32Z</time>
      </trkpt>
      <trkpt lat="50.55437" lon="6.24117">
        <ele>379</ele>
        <time>2015-11-28T11:05:42Z</time>
      </trkpt>
      <trkpt lat="50.55438" lon="6.24123">
        <ele>379</ele>
        <time>2015-11-28T11:05:53Z</time>
      </trkpt>
      <trkpt lat="50.55445" lon="6.24115">
        <ele>379</ele>
        <time>2015-11-28T11:06:03Z</time>
      </trkpt>
      <trkpt lat="50.55444" lon="6.24097">
        <ele>379</ele>
        <time>2015-11-28T11:06:14Z</time>
      </trkpt>
      <trkpt lat="50.55439" lon="6.24093">
        <ele>379</ele>
        <time>2015-11-28T11:06:24Z</time>
      </trkpt>
      <trkpt lat="50.55436" lon="6.24093">
        <ele>379</ele>
        <time>2015-11-28T11:06:35Z</time>
      </trkpt>
      <trkpt lat="50.55439" lon="6.24093">
        <ele>379</ele>
        <time>2015-11-28T11:06:46Z</time>
      </trkpt>
      <trkpt lat="50.55439" lon="6.241">
        <ele>378</ele>
        <time>2015-11-28T11:06:56Z</time>
      </trkpt>
      <trkpt lat="50.55433" lon="6.24102">
        <ele>378</ele>
        <time>2015-11-28T11:07:07Z</time>
      </trkpt>
      <trkpt lat="50.55423" lon="6.24111">
        <ele>378</ele>
        <time>2015-11-28T11:07:17Z</time>
      </trkpt>
      <trkpt lat="50.55415" lon="6.2412">
        <ele>379</ele>
        <time>2015-11-28T11:07:27Z</time>
      </trkpt>
      <trkpt lat="50.55407" lon="6.2413">
        <ele>379</ele>
        <time>2015-11-28T11:07:37Z</time>
      </trkpt>
      <trkpt lat="50.55406" lon="6.24137">
        <ele>379</ele>
        <time>2015-11-28T11:07:48Z</time>
      </trkpt>
      <trkpt lat="50.55407" lon="6.24132">
        <ele>379</ele>
        <time>2015-11-28T11:07:58Z</time>
      </trkpt>
      <trkpt lat="50.55404" lon="6.24137">
        <ele>379</ele>
        <time>2015-11-28T11:08:09Z</time>
      </trkpt>
      <trkpt lat="50.55398" lon="6.24134">
        <ele>378</ele>
        <time>2015-11-28T11:08:19Z</time>
      </trkpt>
      <trkpt lat="50.55397" lon="6.24134">
        <ele>378</ele>
        <time>2015-11-28T11:08:29Z</time>
      </trkpt>
      <trkpt lat="50.55398" lon="6.24138">
        <ele>378</ele>
        <time>2015-11-28T11:08:39Z</time>
      </trkpt>
      <trkpt lat="50.55396" lon="6.24132">
        <ele>378</ele>
        <time>2015-11-28T11:08:49Z</time>
      </trkpt>
      <trkpt lat="50.55381" lon="6.24145">
        <ele>376</ele>
        <time>2015-11-28T11:10:43Z</time>
      </trkpt>
      <trkpt lat="50.55374" lon="6.24133">
        <ele>376</ele>
        <time>2015-11-28T11:10:54Z</time>
      </trkpt>
      <trkpt lat="50.5537" lon="6.24139">
        <ele>377</ele>
        <time>2015-11-28T11:11:05Z</time>
      </trkpt>
      <trkpt lat="50.55371" lon="6.24137">
        <ele>377</ele>
        <time>2015-11-28T11:11:15Z</time>
      </trkpt>
      <trkpt lat="50.55384" lon="6.24144">
        <ele>377</ele>
        <time>2015-11-28T11:12:52Z</time>
      </trkpt>
      <trkpt lat="50.55376" lon="6.2419">
        <ele>377</ele>
        <time>2015-11-28T11:13:02Z</time>
      </trkpt>
      <trkpt lat="50.55372" lon="6.24192">
        <ele>377</ele>
        <time>2015-11-28T11:13:13Z</time>
      </trkpt>
      <trkpt lat="50.55371" lon="6.24188">
        <ele>377</ele>
        <time>2015-11-28T11:13:23Z</time>
      </trkpt>
      <trkpt lat="50.55376" lon="6.24181">
        <ele>378</ele>
        <time>2015-11-28T11:13:33Z</time>
      </trkpt>
      <trkpt lat="50.55383" lon="6.24153">
        <ele>378</ele>
        <time>2015-11-28T11:13:44Z</time>
      </trkpt>
      <trkpt lat="50.55358" lon="6.24224">
        <ele>377</ele>
        <time>2015-11-28T11:18:57Z</time>
      </trkpt>
      <trkpt lat="50.55383" lon="6.24159">
        <ele>377</ele>
        <time>2015-11-28T11:19:07Z</time>
      </trkpt>
      <trkpt lat="50.55379" lon="6.24169">
        <ele>378</ele>
        <time>2015-11-28T11:19:20Z</time>
      </trkpt>
      <trkpt lat="50.55377" lon="6.24173">
        <ele>378</ele>
        <time>2015-11-28T11:19:31Z</time>
      </trkpt>
      <trkpt lat="50.55383" lon="6.24177">
        <ele>377</ele>
        <time>2015-11-28T11:19:41Z</time>
      </trkpt>
      <trkpt lat="50.55379" lon="6.24176">
        <ele>378</ele>
        <time>2015-11-28T11:19:54Z</time>
      </trkpt>
      <trkpt lat="50.5538" lon="6.24152">
        <ele>378</ele>
        <time>2015-11-28T11:22:17Z</time>
      </trkpt>
      <trkpt lat="50.5538" lon="6.24158">
        <ele>376</ele>
        <time>2015-11-28T11:22:28Z</time>
      </trkpt>
      <trkpt lat="50.55372" lon="6.24151">
        <ele>376</ele>
        <time>2015-11-28T11:22:39Z</time>
      </trkpt>
      <trkpt lat="50.55365" lon="6.24143">
        <ele>377</ele>
        <time>2015-11-28T11:22:49Z</time>
      </trkpt>
      <trkpt lat="50.55363" lon="6.24142">
        <ele>377</ele>
        <time>2015-11-28T11:22:59Z</time>
      </trkpt>
      <trkpt lat="50.55361" lon="6.24144">
        <ele>376</ele>
        <time>2015-11-28T11:23:10Z</time>
      </trkpt>
      <trkpt lat="50.55358" lon="6.24144">
        <ele>377</ele>
        <time>2015-11-28T11:23:20Z</time>
      </trkpt>
      <trkpt lat="50.5536" lon="6.24146">
        <ele>377</ele>
        <time>2015-11-28T11:23:31Z</time>
      </trkpt>
      <trkpt lat="50.55362" lon="6.24148">
        <ele>376</ele>
        <time>2015-11-28T11:23:42Z</time>
      </trkpt>
      <trkpt lat="50.55357" lon="6.24147">
        <ele>377</ele>
        <time>2015-11-28T11:23:52Z</time>
      </trkpt>
      <trkpt lat="50.55346" lon="6.24151">
        <ele>377</ele>
        <time>2015-11-28T11:24:03Z</time>
      </trkpt>
      <trkpt lat="50.55342" lon="6.24156">
        <ele>376</ele>
        <time>2015-11-28T11:24:13Z</time>
      </trkpt>
      <trkpt lat="50.5534" lon="6.24156">
        <ele>377</ele>
        <time>2015-11-28T11:24:23Z</time>
      </trkpt>
      <trkpt lat="50.5534" lon="6.24158">
        <ele>377</ele>
        <time>2015-11-28T11:24:34Z</time>
      </trkpt>
      <trkpt lat="50.55343" lon="6.24168">
        <ele>376</ele>
        <time>2015-11-28T11:24:44Z</time>
      </trkpt>
      <trkpt lat="50.55341" lon="6.24167">
        <ele>376</ele>
        <time>2015-11-28T11:24:54Z</time>
      </trkpt>
      <trkpt lat="50.55343" lon="6.24163">
        <ele>376</ele>
        <time>2015-11-28T11:25:05Z</time>
      </trkpt>
      <trkpt lat="50.55347" lon="6.24161">
        <ele>376</ele>
        <time>2015-11-28T11:25:15Z</time>
      </trkpt>
      <trkpt lat="50.55346" lon="6.24165">
        <ele>376</ele>
        <time>2015-11-28T11:25:25Z</time>
      </trkpt>
      <trkpt lat="50.55343" lon="6.24167">
        <ele>376</ele>
        <time>2015-11-28T11:25:36Z</time>
      </trkpt>
      <trkpt lat="50.5534" lon="6.24168">
        <ele>377</ele>
        <time>2015-11-28T11:25:46Z</time>
      </trkpt>
      <trkpt lat="50.55337" lon="6.24166">
        <ele>376</ele>
        <time>2015-11-28T11:25:56Z</time>
      </trkpt>
      <trkpt lat="50.55333" lon="6.24162">
        <ele>376</ele>
        <time>2015-11-28T11:26:07Z</time>
      </trkpt>
      <trkpt lat="50.55333" lon="6.24162">
        <ele>376</ele>
        <time>2015-11-28T11:26:18Z</time>
      </trkpt>
      <trkpt lat="50.55335" lon="6.24162">
        <ele>377</ele>
        <time>2015-11-28T11:26:29Z</time>
      </trkpt>
      <trkpt lat="50.55336" lon="6.24163">
        <ele>376</ele>
        <time>2015-11-28T11:26:39Z</time>
      </trkpt>
      <trkpt lat="50.55335" lon="6.24163">
        <ele>376</ele>
        <time>2015-11-28T11:26:50Z</time>
      </trkpt>
      <trkpt lat="50.55331" lon="6.24161">
        <ele>377</ele>
        <time>2015-11-28T11:27:00Z</time>
      </trkpt>
      <trkpt lat="50.55328" lon="6.24162">
        <ele>377</ele>
        <time>2015-11-28T11:27:10Z</time>
      </trkpt>
      <trkpt lat="50.55322" lon="6.24167">
        <ele>377</ele>
        <time>2015-11-28T11:27:21Z</time>
      </trkpt>
      <trkpt lat="50.55314" lon="6.24173">
        <ele>377</ele>
        <time>2015-11-28T11:27:31Z</time>
      </trkpt>
      <trkpt lat="50.55308" lon="6.24184">
        <ele>377</ele>
        <time>2015-11-28T11:27:42Z</time>
      </trkpt>
      <trkpt lat="50.55306" lon="6.24199">
        <ele>377</ele>
        <time>2015-11-28T11:27:53Z</time>
      </trkpt>
      <trkpt lat="50.55306" lon="6.24204">
        <ele>377</ele>
        <time>2015-11-28T11:28:04Z</time>
      </trkpt>
      <trkpt lat="50.55305" lon="6.24208">
        <ele>377</ele>
        <time>2015-11-28T11:28:15Z</time>
      </trkpt>
      <trkpt lat="50.55305" lon="6.24208">
        <ele>377</ele>
        <time>2015-11-28T11:28:26Z</time>
      </trkpt>
      <trkpt lat="50.55304" lon="6.24207">
        <ele>377</ele>
        <time>2015-11-28T11:28:36Z</time>
      </trkpt>
      <trkpt lat="50.55305" lon="6.24207">
        <ele>378</ele>
        <time>2015-11-28T11:28:47Z</time>
      </trkpt>
      <trkpt lat="50.55309" lon="6.24204">
        <ele>378</ele>
        <time>2015-11-28T11:28:57Z</time>
      </trkpt>
      <trkpt lat="50.55309" lon="6.24203">
        <ele>377</ele>
        <time>2015-11-28T11:29:08Z</time>
      </trkpt>
      <trkpt lat="50.55307" lon="6.242">
        <ele>378</ele>
        <time>2015-11-28T11:29:19Z</time>
      </trkpt>
      <trkpt lat="50.55306" lon="6.24201">
        <ele>378</ele>
        <time>2015-11-28T11:29:30Z</time>
      </trkpt>
      <trkpt lat="50.55306" lon="6.24203">
        <ele>378</ele>
        <time>2015-11-28T11:29:41Z</time>
      </trkpt>
      <trkpt lat="50.55306" lon="6.24201">
        <ele>377</ele>
        <time>2015-11-28T11:29:53Z</time>
      </trkpt>
      <trkpt lat="50.55309" lon="6.24202">
        <ele>377</ele>
        <time>2015-11-28T11:30:03Z</time>
      </trkpt>
      <trkpt lat="50.55308" lon="6.24199">
        <ele>377</ele>
        <time>2015-11-28T11:30:14Z</time>
      </trkpt>
      <trkpt lat="50.553" lon="6.24188">
        <ele>378</ele>
        <time>2015-11-28T11:30:24Z</time>
      </trkpt>
      <trkpt lat="50.55296" lon="6.24191">
        <ele>377</ele>
        <time>2015-11-28T11:30:35Z</time>
      </trkpt>
      <trkpt lat="50.55291" lon="6.24191">
        <ele>377</ele>
        <time>2015-11-28T11:30:45Z</time>
      </trkpt>
      <trkpt lat="50.55286" lon="6.24191">
        <ele>378</ele>
        <time>2015-11-28T11:30:56Z</time>
      </trkpt>
      <trkpt lat="50.55285" lon="6.24187">
        <ele>377</ele>
        <time>2015-11-28T11:31:07Z</time>
      </trkpt>
      <trkpt lat="50.55288" lon="6.24186">
        <ele>378</ele>
        <time>2015-11-28T11:31:17Z</time>
      </trkpt>
      <trkpt lat="50.55288" lon="6.24189">
        <ele>378</ele>
        <time>2015-11-28T11:31:28Z</time>
      </trkpt>
      <trkpt lat="50.55287" lon="6.24189">
        <ele>377</ele>
        <time>2015-11-28T11:31:39Z</time>
      </trkpt>
      <trkpt lat="50.55281" lon="6.24193">
        <ele>378</ele>
        <time>2015-11-28T11:31:50Z</time>
      </trkpt>
      <trkpt lat="50.55273" lon="6.24188">
        <ele>378</ele>
        <time>2015-11-28T11:32:01Z</time>
      </trkpt>
      <trkpt lat="50.55271" lon="6.24189">
        <ele>378</ele>
        <time>2015-11-28T11:32:12Z</time>
      </trkpt>
      <trkpt lat="50.55268" lon="6.24188">
        <ele>378</ele>
        <time>2015-11-28T11:32:22Z</time>
      </trkpt>
      <trkpt lat="50.55261" lon="6.24188">
        <ele>378</ele>
        <time>2015-11-28T11:32:33Z</time>
      </trkpt>
      <trkpt lat="50.55256" lon="6.24188">
        <ele>377</ele>
        <time>2015-11-28T11:32:44Z</time>
      </trkpt>
      <trkpt lat="50.55254" lon="6.24191">
        <ele>378</ele>
        <time>2015-11-28T11:32:54Z</time>
      </trkpt>
      <trkpt lat="50.55249" lon="6.24191">
        <ele>378</ele>
        <time>2015-11-28T11:33:05Z</time>
      </trkpt>
      <trkpt lat="50.55242" lon="6.24181">
        <ele>378</ele>
        <time>2015-11-28T11:33:16Z</time>
      </trkpt>
      <trkpt lat="50.55243" lon="6.24183">
        <ele>378</ele>
        <time>2015-11-28T11:33:27Z</time>
      </trkpt>
      <trkpt lat="50.55245" lon="6.2418">
        <ele>378</ele>
        <time>2015-11-28T11:33:38Z</time>
      </trkpt>
      <trkpt lat="50.55244" lon="6.24172">
        <ele>377</ele>
        <time>2015-11-28T11:33:48Z</time>
      </trkpt>
      <trkpt lat="50.55244" lon="6.24166">
        <ele>378</ele>
        <time>2015-11-28T11:33:59Z</time>
      </trkpt>
      <trkpt lat="50.55239" lon="6.24155">
        <ele>378</ele>
        <time>2015-11-28T11:34:10Z</time>
      </trkpt>
      <trkpt lat="50.55228" lon="6.24149">
        <ele>378</ele>
        <time>2015-11-28T11:34:20Z</time>
      </trkpt>
      <trkpt lat="50.55221" lon="6.24146">
        <ele>379</ele>
        <time>2015-11-28T11:34:31Z</time>
      </trkpt>
      <trkpt lat="50.55219" lon="6.24146">
        <ele>379</ele>
        <time>2015-11-28T11:34:41Z</time>
      </trkpt>
      <trkpt lat="50.55218" lon="6.24143">
        <ele>379</ele>
        <time>2015-11-28T11:34:52Z</time>
      </trkpt>
      <trkpt lat="50.55218" lon="6.2414">
        <ele>379</ele>
        <time>2015-11-28T11:35:03Z</time>
      </trkpt>
      <trkpt lat="50.55219" lon="6.24126">
        <ele>379</ele>
        <time>2015-11-28T11:35:14Z</time>
      </trkpt>
      <trkpt lat="50.55221" lon="6.24111">
        <ele>379</ele>
        <time>2015-11-28T11:35:24Z</time>
      </trkpt>
      <trkpt lat="50.55221" lon="6.24094">
        <ele>380</ele>
        <time>2015-11-28T11:35:35Z</time>
      </trkpt>
      <trkpt lat="50.55218" lon="6.2408">
        <ele>379</ele>
        <time>2015-11-28T11:35:45Z</time>
      </trkpt>
      <trkpt lat="50.55207" lon="6.24074">
        <ele>379</ele>
        <time>2015-11-28T11:35:56Z</time>
      </trkpt>
      <trkpt lat="50.55202" lon="6.24069">
        <ele>379</ele>
        <time>2015-11-28T11:36:06Z</time>
      </trkpt>
      <trkpt lat="50.552" lon="6.24065">
        <ele>379</ele>
        <time>2015-11-28T11:36:16Z</time>
      </trkpt>
      <trkpt lat="50.55198" lon="6.24058">
        <ele>380</ele>
        <time>2015-11-28T11:36:27Z</time>
      </trkpt>
      <trkpt lat="50.55197" lon="6.24059">
        <ele>380</ele>
        <time>2015-11-28T11:36:37Z</time>
      </trkpt>
      <trkpt lat="50.55194" lon="6.24058">
        <ele>378</ele>
        <time>2015-11-28T11:36:48Z</time>
      </trkpt>
      <trkpt lat="50.55192" lon="6.24058">
        <ele>380</ele>
        <time>2015-11-28T11:36:58Z</time>
      </trkpt>
      <trkpt lat="50.5519" lon="6.2406">
        <ele>380</ele>
        <time>2015-11-28T11:37:09Z</time>
      </trkpt>
      <trkpt lat="50.55191" lon="6.24063">
        <ele>379</ele>
        <time>2015-11-28T11:37:20Z</time>
      </trkpt>
      <trkpt lat="50.55191" lon="6.24063">
        <ele>380</ele>
        <time>2015-11-28T11:37:31Z</time>
      </trkpt>
      <trkpt lat="50.55193" lon="6.24066">
        <ele>380</ele>
        <time>2015-11-28T11:37:41Z</time>
      </trkpt>
      <trkpt lat="50.55193" lon="6.24069">
        <ele>380</ele>
        <time>2015-11-28T11:37:52Z</time>
      </trkpt>
      <trkpt lat="50.55192" lon="6.24069">
        <ele>379</ele>
        <time>2015-11-28T11:38:02Z</time>
      </trkpt>
      <trkpt lat="50.55195" lon="6.24067">
        <ele>380</ele>
        <time>2015-11-28T11:38:13Z</time>
      </trkpt>
      <trkpt lat="50.552" lon="6.24064">
        <ele>380</ele>
        <time>2015-11-28T11:38:25Z</time>
      </trkpt>
      <trkpt lat="50.55202" lon="6.24062">
        <ele>380</ele>
        <time>2015-11-28T11:38:36Z</time>
      </trkpt>
      <trkpt lat="50.55201" lon="6.24061">
        <ele>380</ele>
        <time>2015-11-28T11:38:48Z</time>
      </trkpt>
      <trkpt lat="50.55202" lon="6.24058">
        <ele>381</ele>
        <time>2015-11-28T11:38:59Z</time>
      </trkpt>
      <trkpt lat="50.55201" lon="6.24061">
        <ele>381</ele>
        <time>2015-11-28T11:39:09Z</time>
      </trkpt>
      <trkpt lat="50.552" lon="6.24068">
        <ele>380</ele>
        <time>2015-11-28T11:39:19Z</time>
      </trkpt>
      <trkpt lat="50.55199" lon="6.24076">
        <ele>381</ele>
        <time>2015-11-28T11:39:30Z</time>
      </trkpt>
      <trkpt lat="50.55201" lon="6.24088">
        <ele>380</ele>
        <time>2015-11-28T11:39:40Z</time>
      </trkpt>
      <trkpt lat="50.55204" lon="6.24093">
        <ele>381</ele>
        <time>2015-11-28T11:39:51Z</time>
      </trkpt>
      <trkpt lat="50.55209" lon="6.24102">
        <ele>380</ele>
        <time>2015-11-28T11:40:02Z</time>
      </trkpt>
      <trkpt lat="50.55216" lon="6.24112">
        <ele>380</ele>
        <time>2015-11-28T11:40:12Z</time>
      </trkpt>
      <trkpt lat="50.55222" lon="6.24125">
        <ele>380</ele>
        <time>2015-11-28T11:40:23Z</time>
      </trkpt>
      <trkpt lat="50.55225" lon="6.24139">
        <ele>380</ele>
        <time>2015-11-28T11:40:33Z</time>
      </trkpt>
      <trkpt lat="50.55231" lon="6.24154">
        <ele>379</ele>
        <time>2015-11-28T11:40:43Z</time>
      </trkpt>
      <trkpt lat="50.55238" lon="6.24166">
        <ele>379</ele>
        <time>2015-11-28T11:40:54Z</time>
      </trkpt>
      <trkpt lat="50.55244" lon="6.24176">
        <ele>378</ele>
        <time>2015-11-28T11:41:04Z</time>
      </trkpt>
      <trkpt lat="50.55248" lon="6.2418">
        <ele>379</ele>
        <time>2015-11-28T11:41:14Z</time>
      </trkpt>
      <trkpt lat="50.5525" lon="6.24185">
        <ele>379</ele>
        <time>2015-11-28T11:41:24Z</time>
      </trkpt>
      <trkpt lat="50.55248" lon="6.24185">
        <ele>378</ele>
        <time>2015-11-28T11:41:35Z</time>
      </trkpt>
      <trkpt lat="50.55249" lon="6.24189">
        <ele>378</ele>
        <time>2015-11-28T11:41:45Z</time>
      </trkpt>
      <trkpt lat="50.55249" lon="6.2419">
        <ele>377</ele>
        <time>2015-11-28T11:41:56Z</time>
      </trkpt>
      <trkpt lat="50.55249" lon="6.24189">
        <ele>377</ele>
        <time>2015-11-28T11:42:07Z</time>
      </trkpt>
      <trkpt lat="50.55248" lon="6.24188">
        <ele>377</ele>
        <time>2015-11-28T11:42:17Z</time>
      </trkpt>
      <trkpt lat="50.55247" lon="6.24185">
        <ele>377</ele>
        <time>2015-11-28T11:42:28Z</time>
      </trkpt>
      <trkpt lat="50.55247" lon="6.24184">
        <ele>377</ele>
        <time>2015-11-28T11:42:39Z</time>
      </trkpt>
      <trkpt lat="50.55246" lon="6.24185">
        <ele>376</ele>
        <time>2015-11-28T11:42:50Z</time>
      </trkpt>
      <trkpt lat="50.55246" lon="6.24186">
        <ele>376</ele>
        <time>2015-11-28T11:43:00Z</time>
      </trkpt>
      <trkpt lat="50.55247" lon="6.24188">
        <ele>377</ele>
        <time>2015-11-28T11:43:11Z</time>
      </trkpt>
      <trkpt lat="50.55249" lon="6.24189">
        <ele>377</ele>
        <time>2015-11-28T11:43:21Z</time>
      </trkpt>
      <trkpt lat="50.5525" lon="6.24187">
        <ele>377</ele>
        <time>2015-11-28T11:43:32Z</time>
      </trkpt>
      <trkpt lat="50.5525" lon="6.24186">
        <ele>377</ele>
        <time>2015-11-28T11:43:42Z</time>
      </trkpt>
      <trkpt lat="50.55248" lon="6.24186">
        <ele>377</ele>
        <time>2015-11-28T11:43:53Z</time>
      </trkpt>
      <trkpt lat="50.55254" lon="6.24188">
        <ele>377</ele>
        <time>2015-11-28T11:44:03Z</time>
      </trkpt>
      <trkpt lat="50.55256" lon="6.24189">
        <ele>377</ele>
        <time>2015-11-28T11:44:13Z</time>
      </trkpt>
      <trkpt lat="50.55264" lon="6.2419">
        <ele>377</ele>
        <time>2015-11-28T11:44:24Z</time>
      </trkpt>
      <trkpt lat="50.55271" lon="6.24195">
        <ele>377</ele>
        <time>2015-11-28T11:44:34Z</time>
      </trkpt>
      <trkpt lat="50.55278" lon="6.24189">
        <ele>377</ele>
        <time>2015-11-28T11:44:45Z</time>
      </trkpt>
      <trkpt lat="50.55285" lon="6.24189">
        <ele>377</ele>
        <time>2015-11-28T11:44:55Z</time>
      </trkpt>
      <trkpt lat="50.55286" lon="6.24193">
        <ele>376</ele>
        <time>2015-11-28T11:45:06Z</time>
      </trkpt>
      <trkpt lat="50.55294" lon="6.24192">
        <ele>376</ele>
        <time>2015-11-28T11:45:17Z</time>
      </trkpt>
      <trkpt lat="50.55305" lon="6.24184">
        <ele>376</ele>
        <time>2015-11-28T11:45:27Z</time>
      </trkpt>
      <trkpt lat="50.55312" lon="6.24178">
        <ele>376</ele>
        <time>2015-11-28T11:45:38Z</time>
      </trkpt>
      <trkpt lat="50.55322" lon="6.24175">
        <ele>376</ele>
        <time>2015-11-28T11:45:48Z</time>
      </trkpt>
      <trkpt lat="50.55331" lon="6.24171">
        <ele>376</ele>
        <time>2015-11-28T11:45:59Z</time>
      </trkpt>
      <trkpt lat="50.55342" lon="6.24166">
        <ele>376</ele>
        <time>2015-11-28T11:46:09Z</time>
      </trkpt>
      <trkpt lat="50.55352" lon="6.2416">
        <ele>375</ele>
        <time>2015-11-28T11:46:19Z</time>
      </trkpt>
      <trkpt lat="50.55359" lon="6.24155">
        <ele>376</ele>
        <time>2015-11-28T11:46:29Z</time>
      </trkpt>
      <trkpt lat="50.55365" lon="6.2415">
        <ele>375</ele>
        <time>2015-11-28T11:46:40Z</time>
      </trkpt>
      <trkpt lat="50.55366" lon="6.24147">
        <ele>375</ele>
        <time>2015-11-28T11:46:51Z</time>
      </trkpt>
      <trkpt lat="50.55365" lon="6.24147">
        <ele>376</ele>
        <time>2015-11-28T11:47:01Z</time>
      </trkpt>
      <trkpt lat="50.55366" lon="6.24147">
        <ele>375</ele>
        <time>2015-11-28T11:47:12Z</time>
      </trkpt>
      <trkpt lat="50.55369" lon="6.2414">
        <ele>376</ele>
        <time>2015-11-28T11:47:23Z</time>
      </trkpt>
      <trkpt lat="50.55371" lon="6.24137">
        <ele>376</ele>
        <time>2015-11-28T11:47:34Z</time>
      </trkpt>
      <trkpt lat="50.55373" lon="6.24133">
        <ele>376</ele>
        <time>2015-11-28T11:47:44Z</time>
      </trkpt>
      <trkpt lat="50.55379" lon="6.2413">
        <ele>376</ele>
        <time>2015-11-28T11:47:55Z</time>
      </trkpt>
      <trkpt lat="50.55388" lon="6.24127">
        <ele>376</ele>
        <time>2015-11-28T11:48:05Z</time>
      </trkpt>
      <trkpt lat="50.55401" lon="6.24125">
        <ele>376</ele>
        <time>2015-11-28T11:48:16Z</time>
      </trkpt>
      <trkpt lat="50.55409" lon="6.24127">
        <ele>376</ele>
        <time>2015-11-28T11:48:27Z</time>
      </trkpt>
      <trkpt lat="50.55414" lon="6.24129">
        <ele>376</ele>
        <time>2015-11-28T11:48:37Z</time>
      </trkpt>
      <trkpt lat="50.55422" lon="6.24128">
        <ele>376</ele>
        <time>2015-11-28T11:48:48Z</time>
      </trkpt>
      <trkpt lat="50.55427" lon="6.24131">
        <ele>376</ele>
        <time>2015-11-28T11:48:59Z</time>
      </trkpt>
      <trkpt lat="50.55426" lon="6.24131">
        <ele>375</ele>
        <time>2015-11-28T11:49:09Z</time>
      </trkpt>
      <trkpt lat="50.55428" lon="6.24135">
        <ele>376</ele>
        <time>2015-11-28T11:49:20Z</time>
      </trkpt>
      <trkpt lat="50.5543" lon="6.24138">
        <ele>375</ele>
        <time>2015-11-28T11:49:30Z</time>
      </trkpt>
      <trkpt lat="50.55428" lon="6.24141">
        <ele>376</ele>
        <time>2015-11-28T11:49:40Z</time>
      </trkpt>
      <trkpt lat="50.55433" lon="6.24141">
        <ele>376</ele>
        <time>2015-11-28T11:49:51Z</time>
      </trkpt>
      <trkpt lat="50.55435" lon="6.2414">
        <ele>375</ele>
        <time>2015-11-28T11:50:01Z</time>
      </trkpt>
      <trkpt lat="50.55436" lon="6.24141">
        <ele>375</ele>
        <time>2015-11-28T11:50:12Z</time>
      </trkpt>
      <trkpt lat="50.55437" lon="6.24142">
        <ele>375</ele>
        <time>2015-11-28T11:50:23Z</time>
      </trkpt>
      <trkpt lat="50.55438" lon="6.24142">
        <ele>376</ele>
        <time>2015-11-28T11:50:34Z</time>
      </trkpt>
      <trkpt lat="50.55442" lon="6.24139">
        <ele>376</ele>
        <time>2015-11-28T11:50:45Z</time>
      </trkpt>
      <trkpt lat="50.55445" lon="6.24143">
        <ele>375</ele>
        <time>2015-11-28T11:50:56Z</time>
      </trkpt>
      <trkpt lat="50.55448" lon="6.24143">
        <ele>375</ele>
        <time>2015-11-28T11:51:07Z</time>
      </trkpt>
      <trkpt lat="50.55452" lon="6.24142">
        <ele>375</ele>
        <time>2015-11-28T11:51:17Z</time>
      </trkpt>
      <trkpt lat="50.55453" lon="6.24142">
        <ele>375</ele>
        <time>2015-11-28T11:51:28Z</time>
      </trkpt>
      <trkpt lat="50.55453" lon="6.24139">
        <ele>375</ele>
        <time>2015-11-28T11:51:38Z</time>
      </trkpt>
      <trkpt lat="50.55453" lon="6.24135">
        <ele>375</ele>
        <time>2015-11-28T11:51:49Z</time>
      </trkpt>
      <trkpt lat="50.55452" lon="6.24131">
        <ele>375</ele>
        <time>2015-11-28T11:51:59Z</time>
      </trkpt>
      <trkpt lat="50.55452" lon="6.2413">
        <ele>375</ele>
        <time>2015-11-28T11:52:10Z</time>
      </trkpt>
      <trkpt lat="50.55451" lon="6.24129">
        <ele>374</ele>
        <time>2015-11-28T11:52:20Z</time>
      </trkpt>
      <trkpt lat="50.55452" lon="6.2413">
        <ele>375</ele>
        <time>2015-11-28T11:52:31Z</time>
      </trkpt>
      <trkpt lat="50.55453" lon="6.2413">
        <ele>375</ele>
        <time>2015-11-28T11:52:42Z</time>
      </trkpt>
      <trkpt lat="50.55455" lon="6.24131">
        <ele>375</ele>
        <time>2015-11-28T11:52:52Z</time>
      </trkpt>
      <trkpt lat="50.55455" lon="6.2413">
        <ele>374</ele>
        <time>2015-11-28T11:53:02Z</time>
      </trkpt>
      <trkpt lat="50.55452" lon="6.24129">
        <ele>374</ele>
        <time>2015-11-28T11:53:13Z</time>
      </trkpt>
      <trkpt lat="50.55451" lon="6.24125">
        <ele>375</ele>
        <time>2015-11-28T11:53:23Z</time>
      </trkpt>
      <trkpt lat="50.55453" lon="6.24126">
        <ele>374</ele>
        <time>2015-11-28T11:53:34Z</time>
      </trkpt>
      <trkpt lat="50.55452" lon="6.24127">
        <ele>375</ele>
        <time>2015-11-28T11:53:44Z</time>
      </trkpt>
      <trkpt lat="50.55448" lon="6.24128">
        <ele>375</ele>
        <time>2015-11-28T11:53:55Z</time>
      </trkpt>
      <trkpt lat="50.55447" lon="6.24126">
        <ele>374</ele>
        <time>2015-11-28T11:54:05Z</time>
      </trkpt>
      <trkpt lat="50.55447" lon="6.24125">
        <ele>375</ele>
        <time>2015-11-28T11:54:15Z</time>
      </trkpt>
      <trkpt lat="50.55447" lon="6.24128">
        <ele>375</ele>
        <time>2015-11-28T11:54:26Z</time>
      </trkpt>
      <trkpt lat="50.55449" lon="6.24128">
        <ele>374</ele>
        <time>2015-11-28T11:54:36Z</time>
      </trkpt>
      <trkpt lat="50.55451" lon="6.24128">
        <ele>375</ele>
        <time>2015-11-28T11:54:46Z</time>
      </trkpt>
      <trkpt lat="50.55454" lon="6.24132">
        <ele>374</ele>
        <time>2015-11-28T11:54:57Z</time>
      </trkpt>
      <trkpt lat="50.55454" lon="6.24135">
        <ele>374</ele>
        <time>2015-11-28T11:55:07Z</time>
      </trkpt>
      <trkpt lat="50.55454" lon="6.24137">
        <ele>374</ele>
        <time>2015-11-28T11:55:18Z</time>
      </trkpt>
      <trkpt lat="50.55453" lon="6.24137">
        <ele>374</ele>
        <time>2015-11-28T11:55:28Z</time>
      </trkpt>
      <trkpt lat="50.55452" lon="6.24138">
        <ele>374</ele>
        <time>2015-11-28T11:55:39Z</time>
      </trkpt>
      <trkpt lat="50.5545" lon="6.24137">
        <ele>374</ele>
        <time>2015-11-28T11:55:50Z</time>
      </trkpt>
      <trkpt lat="50.55449" lon="6.24136">
        <ele>375</ele>
        <time>2015-11-28T11:56:00Z</time>
      </trkpt>
      <trkpt lat="50.5545" lon="6.24134">
        <ele>375</ele>
        <time>2015-11-28T11:56:11Z</time>
      </trkpt>
      <trkpt lat="50.55448" lon="6.24132">
        <ele>375</ele>
        <time>2015-11-28T11:56:22Z</time>
      </trkpt>
      <trkpt lat="50.55448" lon="6.24133">
        <ele>374</ele>
        <time>2015-11-28T11:56:33Z</time>
      </trkpt>
      <trkpt lat="50.55448" lon="6.24134">
        <ele>375</ele>
        <time>2015-11-28T11:56:44Z</time>
      </trkpt>
      <trkpt lat="50.55456" lon="6.24153">
        <ele>374</ele>
        <time>2015-11-28T11:56:54Z</time>
      </trkpt>
      <trkpt lat="50.55459" lon="6.24156">
        <ele>374</ele>
        <time>2015-11-28T11:57:05Z</time>
      </trkpt>
      <trkpt lat="50.55458" lon="6.24152">
        <ele>375</ele>
        <time>2015-11-28T11:57:15Z</time>
      </trkpt>
      <trkpt lat="50.55458" lon="6.24143">
        <ele>375</ele>
        <time>2015-11-28T11:57:25Z</time>
      </trkpt>
      <trkpt lat="50.55457" lon="6.24135">
        <ele>375</ele>
        <time>2015-11-28T11:57:35Z</time>
      </trkpt>
      <trkpt lat="50.55457" lon="6.24129">
        <ele>375</ele>
        <time>2015-11-28T11:57:47Z</time>
      </trkpt>
      <trkpt lat="50.55455" lon="6.24127">
        <ele>375</ele>
        <time>2015-11-28T11:57:57Z</time>
      </trkpt>
      <trkpt lat="50.55455" lon="6.24128">
        <ele>374</ele>
        <time>2015-11-28T11:58:07Z</time>
      </trkpt>
      <trkpt lat="50.55454" lon="6.24128">
        <ele>374</ele>
        <time>2015-11-28T11:58:18Z</time>
      </trkpt>
      <trkpt lat="50.55454" lon="6.24124">
        <ele>375</ele>
        <time>2015-11-28T11:58:29Z</time>
      </trkpt>
      <trkpt lat="50.55454" lon="6.24123">
        <ele>374</ele>
        <time>2015-11-28T11:58:40Z</time>
      </trkpt>
      <trkpt lat="50.55453" lon="6.24124">
        <ele>375</ele>
        <time>2015-11-28T11:58:51Z</time>
      </trkpt>
      <trkpt lat="50.55453" lon="6.24127">
        <ele>375</ele>
        <time>2015-11-28T11:59:02Z</time>
      </trkpt>
      <trkpt lat="50.55451" lon="6.24126">
        <ele>375</ele>
        <time>2015-11-28T11:59:12Z</time>
      </trkpt>
      <trkpt lat="50.55452" lon="6.24128">
        <ele>375</ele>
        <time>2015-11-28T11:59:22Z</time>
      </trkpt>
      <trkpt lat="50.55453" lon="6.24129">
        <ele>375</ele>
        <time>2015-11-28T11:59:32Z</time>
      </trkpt>
      <trkpt lat="50.55458" lon="6.24136">
        <ele>374</ele>
        <time>2015-11-28T11:59:43Z</time>
      </trkpt>
      <trkpt lat="50.55462" lon="6.24139">
        <ele>374</ele>
        <time>2015-11-28T11:59:53Z</time>
      </trkpt>
      <trkpt lat="50.55468" lon="6.2415">
        <ele>374</ele>
        <time>2015-11-28T12:00:04Z</time>
      </trkpt>
      <trkpt lat="50.55473" lon="6.24153">
        <ele>374</ele>
        <time>2015-11-28T12:00:14Z</time>
      </trkpt>
      <trkpt lat="50.55476" lon="6.24155">
        <ele>374</ele>
        <time>2015-11-28T12:00:25Z</time>
      </trkpt>
      <trkpt lat="50.55476" lon="6.24155">
        <ele>374</ele>
        <time>2015-11-28T12:00:37Z</time>
      </trkpt>
      <trkpt lat="50.55474" lon="6.24156">
        <ele>374</ele>
        <time>2015-11-28T12:00:48Z</time>
      </trkpt>
      <trkpt lat="50.55473" lon="6.24154">
        <ele>374</ele>
        <time>2015-11-28T12:00:58Z</time>
      </trkpt>
      <trkpt lat="50.55472" lon="6.2415">
        <ele>374</ele>
        <time>2015-11-28T12:01:09Z</time>
      </trkpt>
      <trkpt lat="50.55468" lon="6.24152">
        <ele>374</ele>
        <time>2015-11-28T12:01:20Z</time>
      </trkpt>
      <trkpt lat="50.55462" lon="6.24157">
        <ele>374</ele>
        <time>2015-11-28T12:01:30Z</time>
      </trkpt>
      <trkpt lat="50.55452" lon="6.24153">
        <ele>374</ele>
        <time>2015-11-28T12:01:41Z</time>
      </trkpt>
      <trkpt lat="50.55442" lon="6.24149">
        <ele>374</ele>
        <time>2015-11-28T12:01:52Z</time>
      </trkpt>
      <trkpt lat="50.55444" lon="6.24148">
        <ele>374</ele>
        <time>2015-11-28T12:02:02Z</time>
      </trkpt>
      <trkpt lat="50.55455" lon="6.24156">
        <ele>374</ele>
        <time>2015-11-28T12:02:13Z</time>
      </trkpt>
      <trkpt lat="50.55462" lon="6.24161">
        <ele>374</ele>
        <time>2015-11-28T12:02:24Z</time>
      </trkpt>
      <trkpt lat="50.55466" lon="6.24158">
        <ele>374</ele>
        <time>2015-11-28T12:02:36Z</time>
      </trkpt>
      <trkpt lat="50.55467" lon="6.24155">
        <ele>374</ele>
        <time>2015-11-28T12:02:46Z</time>
      </trkpt>
      <trkpt lat="50.55461" lon="6.24152">
        <ele>374</ele>
        <time>2015-11-28T12:02:57Z</time>
      </trkpt>
      <trkpt lat="50.55461" lon="6.24148">
        <ele>374</ele>
        <time>2015-11-28T12:03:08Z</time>
      </trkpt>
      <trkpt lat="50.55462" lon="6.24148">
        <ele>375</ele>
        <time>2015-11-28T12:03:19Z</time>
      </trkpt>
      <trkpt lat="50.55465" lon="6.24147">
        <ele>375</ele>
        <time>2015-11-28T12:03:29Z</time>
      </trkpt>
      <trkpt lat="50.55464" lon="6.24153">
        <ele>375</ele>
        <time>2015-11-28T12:03:39Z</time>
      </trkpt>
      <trkpt lat="50.55467" lon="6.24153">
        <ele>375</ele>
        <time>2015-11-28T12:03:50Z</time>
      </trkpt>
      <trkpt lat="50.55468" lon="6.24153">
        <ele>374</ele>
        <time>2015-11-28T12:04:01Z</time>
      </trkpt>
      <trkpt lat="50.55466" lon="6.24149">
        <ele>375</ele>
        <time>2015-11-28T12:04:11Z</time>
      </trkpt>
      <trkpt lat="50.55464" lon="6.24147">
        <ele>375</ele>
        <time>2015-11-28T12:04:22Z</time>
      </trkpt>
      <trkpt lat="50.55468" lon="6.24148">
        <ele>375</ele>
        <time>2015-11-28T12:04:32Z</time>
      </trkpt>
      <trkpt lat="50.55466" lon="6.24147">
        <ele>375</ele>
        <time>2015-11-28T12:04:43Z</time>
      </trkpt>
      <trkpt lat="50.5547" lon="6.24148">
        <ele>374</ele>
        <time>2015-11-28T12:04:54Z</time>
      </trkpt>
      <trkpt lat="50.55472" lon="6.2415">
        <ele>375</ele>
        <time>2015-11-28T12:05:04Z</time>
      </trkpt>
      <trkpt lat="50.55473" lon="6.24149">
        <ele>374</ele>
        <time>2015-11-28T12:05:15Z</time>
      </trkpt>
      <trkpt lat="50.55472" lon="6.24149">
        <ele>375</ele>
        <time>2015-11-28T12:05:25Z</time>
      </trkpt>
      <trkpt lat="50.55471" lon="6.24152">
        <ele>375</ele>
        <time>2015-11-28T12:05:35Z</time>
      </trkpt>
      <trkpt lat="50.55469" lon="6.24148">
        <ele>374</ele>
        <time>2015-11-28T12:05:46Z</time>
      </trkpt>
      <trkpt lat="50.55471" lon="6.24149">
        <ele>374</ele>
        <time>2015-11-28T12:05:56Z</time>
      </trkpt>
      <trkpt lat="50.55469" lon="6.24148">
        <ele>374</ele>
        <time>2015-11-28T12:06:07Z</time>
      </trkpt>
      <trkpt lat="50.55469" lon="6.24146">
        <ele>374</ele>
        <time>2015-11-28T12:06:17Z</time>
      </trkpt>
      <trkpt lat="50.55471" lon="6.24147">
        <ele>375</ele>
        <time>2015-11-28T12:06:27Z</time>
      </trkpt>
      <trkpt lat="50.55469" lon="6.24149">
        <ele>374</ele>
        <time>2015-11-28T12:06:38Z</time>
      </trkpt>
      <trkpt lat="50.55469" lon="6.24153">
        <ele>374</ele>
        <time>2015-11-28T12:06:48Z</time>
      </trkpt>
      <trkpt lat="50.5547" lon="6.24154">
        <ele>374</ele>
        <time>2015-11-28T12:06:59Z</time>
      </trkpt>
      <trkpt lat="50.55471" lon="6.24152">
        <ele>374</ele>
        <time>2015-11-28T12:07:10Z</time>
      </trkpt>
      <trkpt lat="50.55471" lon="6.24152">
        <ele>374</ele>
        <time>2015-11-28T12:07:21Z</time>
      </trkpt>
      <trkpt lat="50.55471" lon="6.2415">
        <ele>375</ele>
        <time>2015-11-28T12:07:32Z</time>
      </trkpt>
      <trkpt lat="50.55474" lon="6.24148">
        <ele>374</ele>
        <time>2015-11-28T12:07:43Z</time>
      </trkpt>
      <trkpt lat="50.55468" lon="6.24155">
        <ele>374</ele>
        <time>2015-11-28T12:07:54Z</time>
      </trkpt>
      <trkpt lat="50.55467" lon="6.24151">
        <ele>375</ele>
        <time>2015-11-28T12:08:04Z</time>
      </trkpt>
      <trkpt lat="50.55468" lon="6.24152">
        <ele>374</ele>
        <time>2015-11-28T12:08:15Z</time>
      </trkpt>
      <trkpt lat="50.55469" lon="6.24151">
        <ele>375</ele>
        <time>2015-11-28T12:08:25Z</time>
      </trkpt>
      <trkpt lat="50.5547" lon="6.24149">
        <ele>375</ele>
        <time>2015-11-28T12:08:36Z</time>
      </trkpt>
      <trkpt lat="50.55468" lon="6.24148">
        <ele>374</ele>
        <time>2015-11-28T12:08:47Z</time>
      </trkpt>
      <trkpt lat="50.55464" lon="6.24149">
        <ele>375</ele>
        <time>2015-11-28T12:08:57Z</time>
      </trkpt>
      <trkpt lat="50.55463" lon="6.24145">
        <ele>374</ele>
        <time>2015-11-28T12:09:08Z</time>
      </trkpt>
      <trkpt lat="50.55463" lon="6.24142">
        <ele>374</ele>
        <time>2015-11-28T12:09:19Z</time>
      </trkpt>
      <trkpt lat="50.55468" lon="6.24146">
        <ele>374</ele>
        <time>2015-11-28T12:09:30Z</time>
      </trkpt>
      <trkpt lat="50.55463" lon="6.24133">
        <ele>377</ele>
        <time>2015-11-28T12:11:30Z</time>
      </trkpt>
      <trkpt lat="50.55473" lon="6.24175">
        <ele>377</ele>
        <time>2015-11-28T12:11:40Z</time>
      </trkpt>
      <trkpt lat="50.55474" lon="6.24194">
        <ele>377</ele>
        <time>2015-11-28T12:12:02Z</time>
      </trkpt>
      <trkpt lat="50.55476" lon="6.2417">
        <ele>376</ele>
        <time>2015-11-28T12:12:12Z</time>
      </trkpt>
      <trkpt lat="50.55466" lon="6.24179">
        <ele>375</ele>
        <time>2015-11-28T12:12:24Z</time>
      </trkpt>
      <trkpt lat="50.55473" lon="6.24172">
        <ele>373</ele>
        <time>2015-11-28T12:12:34Z</time>
      </trkpt>
      <trkpt lat="50.55477" lon="6.24166">
        <ele>374</ele>
        <time>2015-11-28T12:12:44Z</time>
      </trkpt>
      <trkpt lat="50.55479" lon="6.24163">
        <ele>374</ele>
        <time>2015-11-28T12:12:55Z</time>
      </trkpt>
      <trkpt lat="50.55484" lon="6.24165">
        <ele>374</ele>
        <time>2015-11-28T12:13:06Z</time>
      </trkpt>
      <trkpt lat="50.55488" lon="6.24169">
        <ele>374</ele>
        <time>2015-11-28T12:13:17Z</time>
      </trkpt>
      <trkpt lat="50.55494" lon="6.24175">
        <ele>374</ele>
        <time>2015-11-28T12:13:28Z</time>
      </trkpt>
      <trkpt lat="50.55497" lon="6.24182">
        <ele>373</ele>
        <time>2015-11-28T12:13:39Z</time>
      </trkpt>
      <trkpt lat="50.55503" lon="6.24185">
        <ele>373</ele>
        <time>2015-11-28T12:13:49Z</time>
      </trkpt>
      <trkpt lat="50.55508" lon="6.24188">
        <ele>373</ele>
        <time>2015-11-28T12:14:00Z</time>
      </trkpt>
      <trkpt lat="50.55512" lon="6.24195">
        <ele>373</ele>
        <time>2015-11-28T12:14:10Z</time>
      </trkpt>
      <trkpt lat="50.55516" lon="6.24199">
        <ele>374</ele>
        <time>2015-11-28T12:14:21Z</time>
      </trkpt>
      <trkpt lat="50.55519" lon="6.24205">
        <ele>373</ele>
        <time>2015-11-28T12:14:32Z</time>
      </trkpt>
      <trkpt lat="50.5552" lon="6.24206">
        <ele>373</ele>
        <time>2015-11-28T12:14:43Z</time>
      </trkpt>
      <trkpt lat="50.55519" lon="6.24209">
        <ele>373</ele>
        <time>2015-11-28T12:14:53Z</time>
      </trkpt>
      <trkpt lat="50.55521" lon="6.24208">
        <ele>374</ele>
        <time>2015-11-28T12:15:03Z</time>
      </trkpt>
      <trkpt lat="50.55521" lon="6.24207">
        <ele>373</ele>
        <time>2015-11-28T12:15:14Z</time>
      </trkpt>
      <trkpt lat="50.55525" lon="6.24206">
        <ele>373</ele>
        <time>2015-11-28T12:15:24Z</time>
      </trkpt>
      <trkpt lat="50.55526" lon="6.24208">
        <ele>373</ele>
        <time>2015-11-28T12:15:34Z</time>
      </trkpt>
      <trkpt lat="50.55527" lon="6.24214">
        <ele>373</ele>
        <time>2015-11-28T12:15:45Z</time>
      </trkpt>
      <trkpt lat="50.55527" lon="6.2422">
        <ele>373</ele>
        <time>2015-11-28T12:15:55Z</time>
      </trkpt>
      <trkpt lat="50.55529" lon="6.24225">
        <ele>373</ele>
        <time>2015-11-28T12:16:06Z</time>
      </trkpt>
      <trkpt lat="50.55527" lon="6.24229">
        <ele>373</ele>
        <time>2015-11-28T12:16:17Z</time>
      </trkpt>
      <trkpt lat="50.55526" lon="6.24228">
        <ele>372</ele>
        <time>2015-11-28T12:16:27Z</time>
      </trkpt>
      <trkpt lat="50.55527" lon="6.24228">
        <ele>373</ele>
        <time>2015-11-28T12:16:38Z</time>
      </trkpt>
      <trkpt lat="50.55529" lon="6.24228">
        <ele>373</ele>
        <time>2015-11-28T12:16:49Z</time>
      </trkpt>
      <trkpt lat="50.55531" lon="6.24232">
        <ele>373</ele>
        <time>2015-11-28T12:16:59Z</time>
      </trkpt>
      <trkpt lat="50.55532" lon="6.24238">
        <ele>373</ele>
        <time>2015-11-28T12:17:10Z</time>
      </trkpt>
      <trkpt lat="50.55531" lon="6.24245">
        <ele>373</ele>
        <time>2015-11-28T12:17:20Z</time>
      </trkpt>
      <trkpt lat="50.55533" lon="6.24243">
        <ele>373</ele>
        <time>2015-11-28T12:17:30Z</time>
      </trkpt>
      <trkpt lat="50.55532" lon="6.24247">
        <ele>373</ele>
        <time>2015-11-28T12:17:41Z</time>
      </trkpt>
      <trkpt lat="50.55529" lon="6.24249">
        <ele>373</ele>
        <time>2015-11-28T12:17:51Z</time>
      </trkpt>
      <trkpt lat="50.55528" lon="6.24249">
        <ele>373</ele>
        <time>2015-11-28T12:18:01Z</time>
      </trkpt>
      <trkpt lat="50.55527" lon="6.24251">
        <ele>373</ele>
        <time>2015-11-28T12:18:12Z</time>
      </trkpt>
      <trkpt lat="50.55528" lon="6.24251">
        <ele>373</ele>
        <time>2015-11-28T12:18:22Z</time>
      </trkpt>
      <trkpt lat="50.55529" lon="6.24251">
        <ele>373</ele>
        <time>2015-11-28T12:18:32Z</time>
      </trkpt>
      <trkpt lat="50.5553" lon="6.24241">
        <ele>374</ele>
        <time>2015-11-28T12:18:43Z</time>
      </trkpt>
      <trkpt lat="50.55528" lon="6.24242">
        <ele>373</ele>
        <time>2015-11-28T12:18:54Z</time>
      </trkpt>
      <trkpt lat="50.55519" lon="6.24244">
        <ele>373</ele>
        <time>2015-11-28T12:19:05Z</time>
      </trkpt>
      <trkpt lat="50.55516" lon="6.24248">
        <ele>372</ele>
        <time>2015-11-28T12:19:15Z</time>
      </trkpt>
      <trkpt lat="50.55518" lon="6.24257">
        <ele>373</ele>
        <time>2015-11-28T12:19:26Z</time>
      </trkpt>
      <trkpt lat="50.55521" lon="6.24268">
        <ele>373</ele>
        <time>2015-11-28T12:19:37Z</time>
      </trkpt>
      <trkpt lat="50.5552" lon="6.24278">
        <ele>373</ele>
        <time>2015-11-28T12:19:48Z</time>
      </trkpt>
      <trkpt lat="50.55518" lon="6.24287">
        <ele>373</ele>
        <time>2015-11-28T12:19:58Z</time>
      </trkpt>
      <trkpt lat="50.55518" lon="6.24293">
        <ele>373</ele>
        <time>2015-11-28T12:20:09Z</time>
      </trkpt>
      <trkpt lat="50.55513" lon="6.24304">
        <ele>373</ele>
        <time>2015-11-28T12:20:19Z</time>
      </trkpt>
      <trkpt lat="50.55511" lon="6.24305">
        <ele>374</ele>
        <time>2015-11-28T12:20:30Z</time>
      </trkpt>
      <trkpt lat="50.55509" lon="6.24307">
        <ele>375</ele>
        <time>2015-11-28T12:20:40Z</time>
      </trkpt>
      <trkpt lat="50.55506" lon="6.24312">
        <ele>374</ele>
        <time>2015-11-28T12:20:50Z</time>
      </trkpt>
      <trkpt lat="50.55506" lon="6.24321">
        <ele>374</ele>
        <time>2015-11-28T12:21:01Z</time>
      </trkpt>
      <trkpt lat="50.555" lon="6.24331">
        <ele>374</ele>
        <time>2015-11-28T12:21:12Z</time>
      </trkpt>
      <trkpt lat="50.555" lon="6.24329">
        <ele>373</ele>
        <time>2015-11-28T12:21:22Z</time>
      </trkpt>
      <trkpt lat="50.55496" lon="6.24321">
        <ele>375</ele>
        <time>2015-11-28T12:21:32Z</time>
      </trkpt>
      <trkpt lat="50.55506" lon="6.24304">
        <ele>375</ele>
        <time>2015-11-28T12:21:43Z</time>
      </trkpt>
      <trkpt lat="50.55485" lon="6.24328">
        <ele>375</ele>
        <time>2015-11-28T12:23:46Z</time>
      </trkpt>
      <trkpt lat="50.555" lon="6.24502">
        <ele>374</ele>
        <time>2015-11-28T12:27:17Z</time>
      </trkpt>
      <trkpt lat="50.55518" lon="6.24402">
        <ele>375</ele>
        <time>2015-11-28T12:27:28Z</time>
      </trkpt>
      <trkpt lat="50.55513" lon="6.24359">
        <ele>373</ele>
        <time>2015-11-28T12:27:39Z</time>
      </trkpt>
      <trkpt lat="50.55508" lon="6.24354">
        <ele>373</ele>
        <time>2015-11-28T12:27:50Z</time>
      </trkpt>
      <trkpt lat="50.55501" lon="6.24359">
        <ele>373</ele>
        <time>2015-11-28T12:28:00Z</time>
      </trkpt>
      <trkpt lat="50.55496" lon="6.24359">
        <ele>373</ele>
        <time>2015-11-28T12:28:10Z</time>
      </trkpt>
      <trkpt lat="50.5549" lon="6.24357">
        <ele>372</ele>
        <time>2015-11-28T12:28:21Z</time>
      </trkpt>
      <trkpt lat="50.55492" lon="6.24352">
        <ele>372</ele>
        <time>2015-11-28T12:29:06Z</time>
      </trkpt>
      <trkpt lat="50.55489" lon="6.24352">
        <ele>372</ele>
        <time>2015-11-28T12:29:16Z</time>
      </trkpt>
      <trkpt lat="50.55487" lon="6.24349">
        <ele>372</ele>
        <time>2015-11-28T12:29:27Z</time>
      </trkpt>
      <trkpt lat="50.55489" lon="6.24335">
        <ele>373</ele>
        <time>2015-11-28T12:29:38Z</time>
      </trkpt>
      <trkpt lat="50.55494" lon="6.24329">
        <ele>372</ele>
        <time>2015-11-28T12:29:49Z</time>
      </trkpt>
      <trkpt lat="50.55499" lon="6.24322">
        <ele>372</ele>
        <time>2015-11-28T12:30:00Z</time>
      </trkpt>
      <trkpt lat="50.55502" lon="6.24316">
        <ele>372</ele>
        <time>2015-11-28T12:30:10Z</time>
      </trkpt>
      <trkpt lat="50.55509" lon="6.243">
        <ele>372</ele>
        <time>2015-11-28T12:30:21Z</time>
      </trkpt>
      <trkpt lat="50.55509" lon="6.24294">
        <ele>371</ele>
        <time>2015-11-28T12:30:32Z</time>
      </trkpt>
      <trkpt lat="50.55513" lon="6.24287">
        <ele>371</ele>
        <time>2015-11-28T12:30:43Z</time>
      </trkpt>
      <trkpt lat="50.55514" lon="6.24279">
        <ele>371</ele>
        <time>2015-11-28T12:30:54Z</time>
      </trkpt>
      <trkpt lat="50.55517" lon="6.24265">
        <ele>371</ele>
        <time>2015-11-28T12:31:04Z</time>
      </trkpt>
      <trkpt lat="50.55518" lon="6.24255">
        <ele>371</ele>
        <time>2015-11-28T12:31:15Z</time>
      </trkpt>
      <trkpt lat="50.55518" lon="6.24245">
        <ele>371</ele>
        <time>2015-11-28T12:31:25Z</time>
      </trkpt>
      <trkpt lat="50.55514" lon="6.24237">
        <ele>371</ele>
        <time>2015-11-28T12:31:36Z</time>
      </trkpt>
      <trkpt lat="50.55515" lon="6.24237">
        <ele>371</ele>
        <time>2015-11-28T12:31:46Z</time>
      </trkpt>
      <trkpt lat="50.55519" lon="6.24238">
        <ele>371</ele>
        <time>2015-11-28T12:31:57Z</time>
      </trkpt>
      <trkpt lat="50.55521" lon="6.24239">
        <ele>372</ele>
        <time>2015-11-28T12:32:08Z</time>
      </trkpt>
      <trkpt lat="50.55522" lon="6.24242">
        <ele>371</ele>
        <time>2015-11-28T12:32:18Z</time>
      </trkpt>
      <trkpt lat="50.55524" lon="6.24242">
        <ele>371</ele>
        <time>2015-11-28T12:32:30Z</time>
      </trkpt>
      <trkpt lat="50.55526" lon="6.24237">
        <ele>371</ele>
        <time>2015-11-28T12:32:40Z</time>
      </trkpt>
      <trkpt lat="50.55526" lon="6.24235">
        <ele>372</ele>
        <time>2015-11-28T12:32:51Z</time>
      </trkpt>
      <trkpt lat="50.55526" lon="6.24229">
        <ele>371</ele>
        <time>2015-11-28T12:33:02Z</time>
      </trkpt>
      <trkpt lat="50.55527" lon="6.24223">
        <ele>371</ele>
        <time>2015-11-28T12:33:13Z</time>
      </trkpt>
      <trkpt lat="50.55525" lon="6.24219">
        <ele>371</ele>
        <time>2015-11-28T12:33:24Z</time>
      </trkpt>
      <trkpt lat="50.55523" lon="6.24218">
        <ele>371</ele>
        <time>2015-11-28T12:33:34Z</time>
      </trkpt>
      <trkpt lat="50.55518" lon="6.24217">
        <ele>371</ele>
        <time>2015-11-28T12:33:45Z</time>
      </trkpt>
      <trkpt lat="50.55514" lon="6.24217">
        <ele>371</ele>
        <time>2015-11-28T12:33:56Z</time>
      </trkpt>
      <trkpt lat="50.55513" lon="6.24217">
        <ele>371</ele>
        <time>2015-11-28T12:34:07Z</time>
      </trkpt>
      <trkpt lat="50.55513" lon="6.24217">
        <ele>370</ele>
        <time>2015-11-28T12:34:17Z</time>
      </trkpt>
      <trkpt lat="50.55513" lon="6.24217">
        <ele>371</ele>
        <time>2015-11-28T12:34:29Z</time>
      </trkpt>
      <trkpt lat="50.55511" lon="6.24217">
        <ele>371</ele>
        <time>2015-11-28T12:34:39Z</time>
      </trkpt>
      <trkpt lat="50.5551" lon="6.24216">
        <ele>371</ele>
        <time>2015-11-28T12:34:50Z</time>
      </trkpt>
      <trkpt lat="50.55509" lon="6.24215">
        <ele>370</ele>
        <time>2015-11-28T12:35:02Z</time>
      </trkpt>
      <trkpt lat="50.5551" lon="6.24215">
        <ele>370</ele>
        <time>2015-11-28T12:35:13Z</time>
      </trkpt>
      <trkpt lat="50.5551" lon="6.24213">
        <ele>371</ele>
        <time>2015-11-28T12:35:24Z</time>
      </trkpt>
      <trkpt lat="50.55512" lon="6.2421">
        <ele>370</ele>
        <time>2015-11-28T12:35:34Z</time>
      </trkpt>
      <trkpt lat="50.55512" lon="6.24207">
        <ele>371</ele>
        <time>2015-11-28T12:35:45Z</time>
      </trkpt>
      <trkpt lat="50.55515" lon="6.24206">
        <ele>371</ele>
        <time>2015-11-28T12:35:56Z</time>
      </trkpt>
      <trkpt lat="50.55519" lon="6.24207">
        <ele>370</ele>
        <time>2015-11-28T12:36:07Z</time>
      </trkpt>
      <trkpt lat="50.55524" lon="6.24205">
        <ele>371</ele>
        <time>2015-11-28T12:36:18Z</time>
      </trkpt>
      <trkpt lat="50.55526" lon="6.24201">
        <ele>371</ele>
        <time>2015-11-28T12:36:28Z</time>
      </trkpt>
      <trkpt lat="50.55527" lon="6.24197">
        <ele>371</ele>
        <time>2015-11-28T12:36:39Z</time>
      </trkpt>
      <trkpt lat="50.55528" lon="6.24194">
        <ele>370</ele>
        <time>2015-11-28T12:36:49Z</time>
      </trkpt>
      <trkpt lat="50.5553" lon="6.24193">
        <ele>370</ele>
        <time>2015-11-28T12:37:00Z</time>
      </trkpt>
      <trkpt lat="50.55531" lon="6.24192">
        <ele>370</ele>
        <time>2015-11-28T12:37:11Z</time>
      </trkpt>
      <trkpt lat="50.5553" lon="6.24191">
        <ele>370</ele>
        <time>2015-11-28T12:37:21Z</time>
      </trkpt>
      <trkpt lat="50.55529" lon="6.24191">
        <ele>370</ele>
        <time>2015-11-28T12:37:31Z</time>
      </trkpt>
      <trkpt lat="50.55529" lon="6.2419">
        <ele>370</ele>
        <time>2015-11-28T12:37:42Z</time>
      </trkpt>
      <trkpt lat="50.55531" lon="6.24192">
        <ele>371</ele>
        <time>2015-11-28T12:37:53Z</time>
      </trkpt>
      <trkpt lat="50.55531" lon="6.24194">
        <ele>371</ele>
        <time>2015-11-28T12:38:04Z</time>
      </trkpt>
      <trkpt lat="50.55532" lon="6.24197">
        <ele>371</ele>
        <time>2015-11-28T12:38:14Z</time>
      </trkpt>
      <trkpt lat="50.55537" lon="6.24197">
        <ele>371</ele>
        <time>2015-11-28T12:38:24Z</time>
      </trkpt>
      <trkpt lat="50.55545" lon="6.24188">
        <ele>371</ele>
        <time>2015-11-28T12:38:35Z</time>
      </trkpt>
      <trkpt lat="50.5555" lon="6.24175">
        <ele>373</ele>
        <time>2015-11-28T12:38:45Z</time>
      </trkpt>
      <trkpt lat="50.55549" lon="6.24166">
        <ele>373</ele>
        <time>2015-11-28T12:38:55Z</time>
      </trkpt>
      <trkpt lat="50.55547" lon="6.24154">
        <ele>375</ele>
        <time>2015-11-28T12:39:06Z</time>
      </trkpt>
      <trkpt lat="50.55545" lon="6.2414">
        <ele>375</ele>
        <time>2015-11-28T12:39:17Z</time>
      </trkpt>
      <trkpt lat="50.55545" lon="6.24128">
        <ele>376</ele>
        <time>2015-11-28T12:39:28Z</time>
      </trkpt>
      <trkpt lat="50.55542" lon="6.24117">
        <ele>376</ele>
        <time>2015-11-28T12:39:39Z</time>
      </trkpt>
      <trkpt lat="50.55541" lon="6.24116">
        <ele>377</ele>
        <time>2015-11-28T12:39:50Z</time>
      </trkpt>
      <trkpt lat="50.5554" lon="6.24115">
        <ele>376</ele>
        <time>2015-11-28T12:40:01Z</time>
      </trkpt>
      <trkpt lat="50.55537" lon="6.24115">
        <ele>376</ele>
        <time>2015-11-28T12:40:12Z</time>
      </trkpt>
      <trkpt lat="50.55531" lon="6.2411">
        <ele>376</ele>
        <time>2015-11-28T12:40:23Z</time>
      </trkpt>
      <trkpt lat="50.5553" lon="6.24107">
        <ele>376</ele>
        <time>2015-11-28T12:40:33Z</time>
      </trkpt>
      <trkpt lat="50.55528" lon="6.24107">
        <ele>376</ele>
        <time>2015-11-28T12:40:44Z</time>
      </trkpt>
      <trkpt lat="50.55527" lon="6.24111">
        <ele>376</ele>
        <time>2015-11-28T12:40:55Z</time>
      </trkpt>
      <trkpt lat="50.5553" lon="6.24108">
        <ele>377</ele>
        <time>2015-11-28T12:41:06Z</time>
      </trkpt>
      <trkpt lat="50.55534" lon="6.24112">
        <ele>377</ele>
        <time>2015-11-28T12:41:16Z</time>
      </trkpt>
      <trkpt lat="50.55536" lon="6.2411">
        <ele>378</ele>
        <time>2015-11-28T12:41:26Z</time>
      </trkpt>
      <trkpt lat="50.55537" lon="6.2411">
        <ele>377</ele>
        <time>2015-11-28T12:41:36Z</time>
      </trkpt>
      <trkpt lat="50.55537" lon="6.24105">
        <ele>379</ele>
        <time>2015-11-28T12:41:47Z</time>
      </trkpt>
      <trkpt lat="50.55536" lon="6.241">
        <ele>382</ele>
        <time>2015-11-28T12:41:57Z</time>
      </trkpt>
      <trkpt lat="50.55537" lon="6.24092">
        <ele>383</ele>
        <time>2015-11-28T12:42:08Z</time>
      </trkpt>
      <trkpt lat="50.55532" lon="6.24081">
        <ele>385</ele>
        <time>2015-11-28T12:42:18Z</time>
      </trkpt>
      <trkpt lat="50.55533" lon="6.24077">
        <ele>388</ele>
        <time>2015-11-28T12:42:29Z</time>
      </trkpt>
      <trkpt lat="50.55534" lon="6.24075">
        <ele>391</ele>
        <time>2015-11-28T12:42:40Z</time>
      </trkpt>
      <trkpt lat="50.55536" lon="6.24082">
        <ele>393</ele>
        <time>2015-11-28T12:42:51Z</time>
      </trkpt>
      <trkpt lat="50.55537" lon="6.24085">
        <ele>393</ele>
        <time>2015-11-28T12:43:01Z</time>
      </trkpt>
      <trkpt lat="50.55541" lon="6.24093">
        <ele>393</ele>
        <time>2015-11-28T12:43:11Z</time>
      </trkpt>
      <trkpt lat="50.55547" lon="6.24096">
        <ele>396</ele>
        <time>2015-11-28T12:43:22Z</time>
      </trkpt>
      <trkpt lat="50.55553" lon="6.24095">
        <ele>399</ele>
        <time>2015-11-28T12:43:32Z</time>
      </trkpt>
      <trkpt lat="50.55557" lon="6.24096">
        <ele>402</ele>
        <time>2015-11-28T12:43:43Z</time>
      </trkpt>
      <trkpt lat="50.55557" lon="6.24088">
        <ele>404</ele>
        <time>2015-11-28T12:43:53Z</time>
      </trkpt>
      <trkpt lat="50.55557" lon="6.24084">
        <ele>404</ele>
        <time>2015-11-28T12:44:05Z</time>
      </trkpt>
      <trkpt lat="50.55555" lon="6.24081">
        <ele>404</ele>
        <time>2015-11-28T12:44:15Z</time>
      </trkpt>
      <trkpt lat="50.55554" lon="6.24081">
        <ele>404</ele>
        <time>2015-11-28T12:44:26Z</time>
      </trkpt>
      <trkpt lat="50.55559" lon="6.24084">
        <ele>404</ele>
        <time>2015-11-28T12:44:36Z</time>
      </trkpt>
      <trkpt lat="50.55566" lon="6.24098">
        <ele>405</ele>
        <time>2015-11-28T12:44:47Z</time>
      </trkpt>
      <trkpt lat="50.55571" lon="6.24111">
        <ele>408</ele>
        <time>2015-11-28T12:44:58Z</time>
      </trkpt>
      <trkpt lat="50.55574" lon="6.24115">
        <ele>409</ele>
        <time>2015-11-28T12:45:08Z</time>
      </trkpt>
      <trkpt lat="50.55577" lon="6.24125">
        <ele>410</ele>
        <time>2015-11-28T12:45:19Z</time>
      </trkpt>
      <trkpt lat="50.55577" lon="6.24128">
        <ele>410</ele>
        <time>2015-11-28T12:45:29Z</time>
      </trkpt>
      <trkpt lat="50.55578" lon="6.24132">
        <ele>411</ele>
        <time>2015-11-28T12:45:39Z</time>
      </trkpt>
      <trkpt lat="50.55579" lon="6.24129">
        <ele>411</ele>
        <time>2015-11-28T12:45:50Z</time>
      </trkpt>
      <trkpt lat="50.5558" lon="6.24131">
        <ele>412</ele>
        <time>2015-11-28T12:46:00Z</time>
      </trkpt>
      <trkpt lat="50.55584" lon="6.24137">
        <ele>414</ele>
        <time>2015-11-28T12:46:10Z</time>
      </trkpt>
      <trkpt lat="50.55589" lon="6.2414">
        <ele>417</ele>
        <time>2015-11-28T12:46:21Z</time>
      </trkpt>
      <trkpt lat="50.5559" lon="6.24142">
        <ele>418</ele>
        <time>2015-11-28T12:46:32Z</time>
      </trkpt>
      <trkpt lat="50.55592" lon="6.24142">
        <ele>418</ele>
        <time>2015-11-28T12:46:45Z</time>
      </trkpt>
      <trkpt lat="50.55592" lon="6.24141">
        <ele>418</ele>
        <time>2015-11-28T12:46:57Z</time>
      </trkpt>
      <trkpt lat="50.5559" lon="6.24139">
        <ele>418</ele>
        <time>2015-11-28T12:47:08Z</time>
      </trkpt>
      <trkpt lat="50.55582" lon="6.24137">
        <ele>415</ele>
        <time>2015-11-28T12:47:19Z</time>
      </trkpt>
      <trkpt lat="50.55576" lon="6.24127">
        <ele>413</ele>
        <time>2015-11-28T12:47:29Z</time>
      </trkpt>
      <trkpt lat="50.55574" lon="6.2412">
        <ele>410</ele>
        <time>2015-11-28T12:47:39Z</time>
      </trkpt>
      <trkpt lat="50.55574" lon="6.24118">
        <ele>409</ele>
        <time>2015-11-28T12:47:51Z</time>
      </trkpt>
      <trkpt lat="50.55574" lon="6.24119">
        <ele>409</ele>
        <time>2015-11-28T12:48:02Z</time>
      </trkpt>
      <trkpt lat="50.55573" lon="6.24119">
        <ele>409</ele>
        <time>2015-11-28T12:48:13Z</time>
      </trkpt>
      <trkpt lat="50.55573" lon="6.24119">
        <ele>409</ele>
        <time>2015-11-28T12:48:24Z</time>
      </trkpt>
      <trkpt lat="50.55574" lon="6.2412">
        <ele>409</ele>
        <time>2015-11-28T12:48:35Z</time>
      </trkpt>
      <trkpt lat="50.55576" lon="6.2412">
        <ele>410</ele>
        <time>2015-11-28T12:48:45Z</time>
      </trkpt>
      <trkpt lat="50.55579" lon="6.2412">
        <ele>410</ele>
        <time>2015-11-28T12:48:55Z</time>
      </trkpt>
      <trkpt lat="50.5558" lon="6.24121">
        <ele>410</ele>
        <time>2015-11-28T12:49:06Z</time>
      </trkpt>
      <trkpt lat="50.55581" lon="6.24128">
        <ele>411</ele>
        <time>2015-11-28T12:49:17Z</time>
      </trkpt>
      <trkpt lat="50.55583" lon="6.24131">
        <ele>410</ele>
        <time>2015-11-28T12:49:28Z</time>
      </trkpt>
      <trkpt lat="50.55584" lon="6.24132">
        <ele>411</ele>
        <time>2015-11-28T12:49:40Z</time>
      </trkpt>
      <trkpt lat="50.55582" lon="6.24127">
        <ele>411</ele>
        <time>2015-11-28T12:49:51Z</time>
      </trkpt>
      <trkpt lat="50.55588" lon="6.24135">
        <ele>413</ele>
        <time>2015-11-28T12:50:02Z</time>
      </trkpt>
      <trkpt lat="50.55592" lon="6.24139">
        <ele>417</ele>
        <time>2015-11-28T12:50:12Z</time>
      </trkpt>
      <trkpt lat="50.55598" lon="6.24147">
        <ele>418</ele>
        <time>2015-11-28T12:50:23Z</time>
      </trkpt>
      <trkpt lat="50.55598" lon="6.24138">
        <ele>422</ele>
        <time>2015-11-28T12:50:33Z</time>
      </trkpt>
      <trkpt lat="50.55592" lon="6.2413">
        <ele>424</ele>
        <time>2015-11-28T12:50:44Z</time>
      </trkpt>
      <trkpt lat="50.55592" lon="6.24117">
        <ele>425</ele>
        <time>2015-11-28T12:50:54Z</time>
      </trkpt>
      <trkpt lat="50.55592" lon="6.24111">
        <ele>426</ele>
        <time>2015-11-28T12:51:05Z</time>
      </trkpt>
      <trkpt lat="50.55594" lon="6.2411">
        <ele>426</ele>
        <time>2015-11-28T12:51:15Z</time>
      </trkpt>
      <trkpt lat="50.55595" lon="6.24111">
        <ele>426</ele>
        <time>2015-11-28T12:51:26Z</time>
      </trkpt>
      <trkpt lat="50.55595" lon="6.2411">
        <ele>426</ele>
        <time>2015-11-28T12:51:37Z</time>
      </trkpt>
      <trkpt lat="50.55595" lon="6.24112">
        <ele>427</ele>
        <time>2015-11-28T12:51:48Z</time>
      </trkpt>
      <trkpt lat="50.55596" lon="6.24112">
        <ele>426</ele>
        <time>2015-11-28T12:51:58Z</time>
      </trkpt>
      <trkpt lat="50.55596" lon="6.24113">
        <ele>427</ele>
        <time>2015-11-28T12:52:09Z</time>
      </trkpt>
      <trkpt lat="50.55594" lon="6.24112">
        <ele>427</ele>
        <time>2015-11-28T12:52:20Z</time>
      </trkpt>
      <trkpt lat="50.5559" lon="6.24112">
        <ele>428</ele>
        <time>2015-11-28T12:52:30Z</time>
      </trkpt>
      <trkpt lat="50.55589" lon="6.24112">
        <ele>427</ele>
        <time>2015-11-28T12:52:41Z</time>
      </trkpt>
      <trkpt lat="50.55592" lon="6.24114">
        <ele>426</ele>
        <time>2015-11-28T12:52:51Z</time>
      </trkpt>
      <trkpt lat="50.55594" lon="6.24111">
        <ele>426</ele>
        <time>2015-11-28T12:53:02Z</time>
      </trkpt>
      <trkpt lat="50.55595" lon="6.2411">
        <ele>426</ele>
        <time>2015-11-28T12:53:13Z</time>
      </trkpt>
      <trkpt lat="50.55596" lon="6.24111">
        <ele>426</ele>
        <time>2015-11-28T12:53:24Z</time>
      </trkpt>
      <trkpt lat="50.55597" lon="6.24111">
        <ele>426</ele>
        <time>2015-11-28T12:53:35Z</time>
      </trkpt>
      <trkpt lat="50.55599" lon="6.24111">
        <ele>426</ele>
        <time>2015-11-28T12:53:46Z</time>
      </trkpt>
      <trkpt lat="50.556" lon="6.24113">
        <ele>426</ele>
        <time>2015-11-28T12:53:57Z</time>
      </trkpt>
      <trkpt lat="50.55599" lon="6.24117">
        <ele>426</ele>
        <time>2015-11-28T12:54:08Z</time>
      </trkpt>
      <trkpt lat="50.55598" lon="6.24126">
        <ele>424</ele>
        <time>2015-11-28T12:54:18Z</time>
      </trkpt>
      <trkpt lat="50.55603" lon="6.24137">
        <ele>422</ele>
        <time>2015-11-28T12:54:29Z</time>
      </trkpt>
      <trkpt lat="50.55599" lon="6.24144">
        <ele>419</ele>
        <time>2015-11-28T12:54:40Z</time>
      </trkpt>
      <trkpt lat="50.55588" lon="6.2414">
        <ele>416</ele>
        <time>2015-11-28T12:54:51Z</time>
      </trkpt>
      <trkpt lat="50.55579" lon="6.24135">
        <ele>413</ele>
        <time>2015-11-28T12:55:02Z</time>
      </trkpt>
      <trkpt lat="50.5558" lon="6.24133">
        <ele>412</ele>
        <time>2015-11-28T12:55:12Z</time>
      </trkpt>
      <trkpt lat="50.55582" lon="6.24134">
        <ele>413</ele>
        <time>2015-11-28T12:55:23Z</time>
      </trkpt>
      <trkpt lat="50.5558" lon="6.24129">
        <ele>413</ele>
        <time>2015-11-28T12:55:33Z</time>
      </trkpt>
      <trkpt lat="50.5558" lon="6.24127">
        <ele>412</ele>
        <time>2015-11-28T12:55:44Z</time>
      </trkpt>
      <trkpt lat="50.55581" lon="6.24126">
        <ele>411</ele>
        <time>2015-11-28T12:55:58Z</time>
      </trkpt>
      <trkpt lat="50.5558" lon="6.24126">
        <ele>412</ele>
        <time>2015-11-28T12:56:08Z</time>
      </trkpt>
      <trkpt lat="50.5558" lon="6.24124">
        <ele>412</ele>
        <time>2015-11-28T12:56:19Z</time>
      </trkpt>
      <trkpt lat="50.5558" lon="6.24123">
        <ele>413</ele>
        <time>2015-11-28T12:56:29Z</time>
      </trkpt>
      <trkpt lat="50.5558" lon="6.24123">
        <ele>411</ele>
        <time>2015-11-28T12:56:40Z</time>
      </trkpt>
      <trkpt lat="50.55579" lon="6.24122">
        <ele>411</ele>
        <time>2015-11-28T12:56:50Z</time>
      </trkpt>
      <trkpt lat="50.55576" lon="6.24115">
        <ele>410</ele>
        <time>2015-11-28T12:57:01Z</time>
      </trkpt>
      <trkpt lat="50.55573" lon="6.24112">
        <ele>408</ele>
        <time>2015-11-28T12:57:12Z</time>
      </trkpt>
      <trkpt lat="50.55569" lon="6.24108">
        <ele>409</ele>
        <time>2015-11-28T12:57:22Z</time>
      </trkpt>
      <trkpt lat="50.55562" lon="6.24094">
        <ele>405</ele>
        <time>2015-11-28T12:57:33Z</time>
      </trkpt>
      <trkpt lat="50.55557" lon="6.2409">
        <ele>404</ele>
        <time>2015-11-28T12:57:43Z</time>
      </trkpt>
      <trkpt lat="50.55555" lon="6.24083">
        <ele>404</ele>
        <time>2015-11-28T12:57:54Z</time>
      </trkpt>
      <trkpt lat="50.55553" lon="6.24082">
        <ele>404</ele>
        <time>2015-11-28T12:58:05Z</time>
      </trkpt>
      <trkpt lat="50.55557" lon="6.24083">
        <ele>404</ele>
        <time>2015-11-28T12:58:16Z</time>
      </trkpt>
      <trkpt lat="50.5556" lon="6.24083">
        <ele>404</ele>
        <time>2015-11-28T12:58:27Z</time>
      </trkpt>
      <trkpt lat="50.55558" lon="6.24088">
        <ele>403</ele>
        <time>2015-11-28T12:58:38Z</time>
      </trkpt>
      <trkpt lat="50.55556" lon="6.2409">
        <ele>403</ele>
        <time>2015-11-28T12:58:48Z</time>
      </trkpt>
      <trkpt lat="50.55558" lon="6.24091">
        <ele>404</ele>
        <time>2015-11-28T12:58:59Z</time>
      </trkpt>
      <trkpt lat="50.55562" lon="6.24091">
        <ele>404</ele>
        <time>2015-11-28T12:59:09Z</time>
      </trkpt>
      <trkpt lat="50.55564" lon="6.2409">
        <ele>405</ele>
        <time>2015-11-28T12:59:20Z</time>
      </trkpt>
      <trkpt lat="50.55558" lon="6.24086">
        <ele>404</ele>
        <time>2015-11-28T12:59:30Z</time>
      </trkpt>
      <trkpt lat="50.55562" lon="6.2409">
        <ele>404</ele>
        <time>2015-11-28T12:59:40Z</time>
      </trkpt>
      <trkpt lat="50.5556" lon="6.24095">
        <ele>402</ele>
        <time>2015-11-28T12:59:51Z</time>
      </trkpt>
      <trkpt lat="50.55555" lon="6.24096">
        <ele>398</ele>
        <time>2015-11-28T13:00:01Z</time>
      </trkpt>
      <trkpt lat="50.55551" lon="6.241">
        <ele>397</ele>
        <time>2015-11-28T13:00:12Z</time>
      </trkpt>
      <trkpt lat="50.55545" lon="6.24098">
        <ele>396</ele>
        <time>2015-11-28T13:00:23Z</time>
      </trkpt>
      <trkpt lat="50.55542" lon="6.24093">
        <ele>393</ele>
        <time>2015-11-28T13:00:33Z</time>
      </trkpt>
      <trkpt lat="50.5554" lon="6.24094">
        <ele>393</ele>
        <time>2015-11-28T13:00:43Z</time>
      </trkpt>
      <trkpt lat="50.55535" lon="6.24086">
        <ele>393</ele>
        <time>2015-11-28T13:00:53Z</time>
      </trkpt>
      <trkpt lat="50.55532" lon="6.24077">
        <ele>392</ele>
        <time>2015-11-28T13:01:04Z</time>
      </trkpt>
      <trkpt lat="50.55531" lon="6.24078">
        <ele>390</ele>
        <time>2015-11-28T13:01:14Z</time>
      </trkpt>
      <trkpt lat="50.55528" lon="6.2408">
        <ele>388</ele>
        <time>2015-11-28T13:01:24Z</time>
      </trkpt>
      <trkpt lat="50.55528" lon="6.24079">
        <ele>388</ele>
        <time>2015-11-28T13:01:35Z</time>
      </trkpt>
      <trkpt lat="50.55527" lon="6.24081">
        <ele>388</ele>
        <time>2015-11-28T13:01:45Z</time>
      </trkpt>
      <trkpt lat="50.55529" lon="6.24088">
        <ele>385</ele>
        <time>2015-11-28T13:01:56Z</time>
      </trkpt>
      <trkpt lat="50.55532" lon="6.24096">
        <ele>383</ele>
        <time>2015-11-28T13:02:07Z</time>
      </trkpt>
      <trkpt lat="50.55531" lon="6.24101">
        <ele>383</ele>
        <time>2015-11-28T13:02:17Z</time>
      </trkpt>
      <trkpt lat="50.5553" lon="6.24103">
        <ele>382</ele>
        <time>2015-11-28T13:02:27Z</time>
      </trkpt>
      <trkpt lat="50.5553" lon="6.24104">
        <ele>383</ele>
        <time>2015-11-28T13:02:38Z</time>
      </trkpt>
      <trkpt lat="50.55531" lon="6.24111">
        <ele>382</ele>
        <time>2015-11-28T13:02:49Z</time>
      </trkpt>
      <trkpt lat="50.55531" lon="6.24113">
        <ele>379</ele>
        <time>2015-11-28T13:02:59Z</time>
      </trkpt>
      <trkpt lat="50.55533" lon="6.24113">
        <ele>377</ele>
        <time>2015-11-28T13:03:09Z</time>
      </trkpt>
      <trkpt lat="50.5553" lon="6.2411">
        <ele>376</ele>
        <time>2015-11-28T13:03:19Z</time>
      </trkpt>
      <trkpt lat="50.5553" lon="6.2411">
        <ele>376</ele>
        <time>2015-11-28T13:03:29Z</time>
      </trkpt>
      <trkpt lat="50.55526" lon="6.24107">
        <ele>376</ele>
        <time>2015-11-28T13:03:40Z</time>
      </trkpt>
      <trkpt lat="50.55521" lon="6.2411">
        <ele>375</ele>
        <time>2015-11-28T13:03:51Z</time>
      </trkpt>
      <trkpt lat="50.55516" lon="6.24113">
        <ele>375</ele>
        <time>2015-11-28T13:04:01Z</time>
      </trkpt>
      <trkpt lat="50.55498" lon="6.24111">
        <ele>374</ele>
        <time>2015-11-28T13:04:12Z</time>
      </trkpt>
      <trkpt lat="50.55486" lon="6.2411">
        <ele>373</ele>
        <time>2015-11-28T13:04:22Z</time>
      </trkpt>
      <trkpt lat="50.55487" lon="6.24094">
        <ele>372</ele>
        <time>2015-11-28T13:04:33Z</time>
      </trkpt>
      <trkpt lat="50.55487" lon="6.24076">
        <ele>372</ele>
        <time>2015-11-28T13:04:43Z</time>
      </trkpt>
      <trkpt lat="50.55487" lon="6.24067">
        <ele>372</ele>
        <time>2015-11-28T13:04:54Z</time>
      </trkpt>
      <trkpt lat="50.55489" lon="6.24064">
        <ele>372</ele>
        <time>2015-11-28T13:05:04Z</time>
      </trkpt>
      <trkpt lat="50.55488" lon="6.24056">
        <ele>373</ele>
        <time>2015-11-28T13:05:14Z</time>
      </trkpt>
      <trkpt lat="50.55489" lon="6.24053">
        <ele>372</ele>
        <time>2015-11-28T13:05:25Z</time>
      </trkpt>
      <trkpt lat="50.555" lon="6.24048">
        <ele>373</ele>
        <time>2015-11-28T13:05:35Z</time>
      </trkpt>
      <trkpt lat="50.55513" lon="6.24044">
        <ele>374</ele>
        <time>2015-11-28T13:05:45Z</time>
      </trkpt>
      <trkpt lat="50.55514" lon="6.2404">
        <ele>373</ele>
        <time>2015-11-28T13:05:56Z</time>
      </trkpt>
      <trkpt lat="50.55517" lon="6.24028">
        <ele>374</ele>
        <time>2015-11-28T13:06:07Z</time>
      </trkpt>
      <trkpt lat="50.55521" lon="6.24021">
        <ele>374</ele>
        <time>2015-11-28T13:06:18Z</time>
      </trkpt>
      <trkpt lat="50.55523" lon="6.24018">
        <ele>374</ele>
        <time>2015-11-28T13:06:29Z</time>
      </trkpt>
      <trkpt lat="50.55523" lon="6.24017">
        <ele>375</ele>
        <time>2015-11-28T13:06:40Z</time>
      </trkpt>
      <trkpt lat="50.55523" lon="6.2402">
        <ele>374</ele>
        <time>2015-11-28T13:06:51Z</time>
      </trkpt>
      <trkpt lat="50.55525" lon="6.24019">
        <ele>375</ele>
        <time>2015-11-28T13:07:02Z</time>
      </trkpt>
      <trkpt lat="50.55525" lon="6.2402">
        <ele>374</ele>
        <time>2015-11-28T13:07:12Z</time>
      </trkpt>
      <trkpt lat="50.55526" lon="6.2402">
        <ele>374</ele>
        <time>2015-11-28T13:07:23Z</time>
      </trkpt>
      <trkpt lat="50.55528" lon="6.24018">
        <ele>375</ele>
        <time>2015-11-28T13:07:34Z</time>
      </trkpt>
      <trkpt lat="50.5553" lon="6.2402">
        <ele>375</ele>
        <time>2015-11-28T13:07:46Z</time>
      </trkpt>
      <trkpt lat="50.55528" lon="6.24025">
        <ele>374</ele>
        <time>2015-11-28T13:07:57Z</time>
      </trkpt>
      <trkpt lat="50.55523" lon="6.24026">
        <ele>375</ele>
        <time>2015-11-28T13:08:07Z</time>
      </trkpt>
      <trkpt lat="50.55517" lon="6.24026">
        <ele>374</ele>
        <time>2015-11-28T13:08:18Z</time>
      </trkpt>
      <trkpt lat="50.55513" lon="6.24025">
        <ele>374</ele>
        <time>2015-11-28T13:08:28Z</time>
      </trkpt>
      <trkpt lat="50.55514" lon="6.24024">
        <ele>374</ele>
        <time>2015-11-28T13:08:38Z</time>
      </trkpt>
      <trkpt lat="50.55516" lon="6.24024">
        <ele>374</ele>
        <time>2015-11-28T13:08:49Z</time>
      </trkpt>
      <trkpt lat="50.5552" lon="6.24022">
        <ele>375</ele>
        <time>2015-11-28T13:08:59Z</time>
      </trkpt>
      <trkpt lat="50.55521" lon="6.24017">
        <ele>375</ele>
        <time>2015-11-28T13:09:09Z</time>
      </trkpt>
      <trkpt lat="50.55528" lon="6.24011">
        <ele>375</ele>
        <time>2015-11-28T13:09:19Z</time>
      </trkpt>
      <trkpt lat="50.55536" lon="6.24009">
        <ele>375</ele>
        <time>2015-11-28T13:09:30Z</time>
      </trkpt>
      <trkpt lat="50.55541" lon="6.24008">
        <ele>376</ele>
        <time>2015-11-28T13:09:41Z</time>
      </trkpt>
      <trkpt lat="50.55547" lon="6.24004">
        <ele>376</ele>
        <time>2015-11-28T13:09:52Z</time>
      </trkpt>
      <trkpt lat="50.55554" lon="6.24004">
        <ele>376</ele>
        <time>2015-11-28T13:10:02Z</time>
      </trkpt>
      <trkpt lat="50.55558" lon="6.24004">
        <ele>377</ele>
        <time>2015-11-28T13:10:13Z</time>
      </trkpt>
      <trkpt lat="50.55565" lon="6.24006">
        <ele>377</ele>
        <time>2015-11-28T13:10:23Z</time>
      </trkpt>
      <trkpt lat="50.55562" lon="6.24009">
        <ele>377</ele>
        <time>2015-11-28T13:10:33Z</time>
      </trkpt>
      <trkpt lat="50.55564" lon="6.24006">
        <ele>377</ele>
        <time>2015-11-28T13:10:44Z</time>
      </trkpt>
      <trkpt lat="50.55571" lon="6.24002">
        <ele>378</ele>
        <time>2015-11-28T13:10:55Z</time>
      </trkpt>
      <trkpt lat="50.55579" lon="6.23999">
        <ele>379</ele>
        <time>2015-11-28T13:11:05Z</time>
      </trkpt>
      <trkpt lat="50.55589" lon="6.23999">
        <ele>379</ele>
        <time>2015-11-28T13:11:15Z</time>
      </trkpt>
      <trkpt lat="50.55599" lon="6.24002">
        <ele>380</ele>
        <time>2015-11-28T13:11:26Z</time>
      </trkpt>
      <trkpt lat="50.55606" lon="6.24002">
        <ele>380</ele>
        <time>2015-11-28T13:11:37Z</time>
      </trkpt>
      <trkpt lat="50.55612" lon="6.24">
        <ele>381</ele>
        <time>2015-11-28T13:11:47Z</time>
      </trkpt>
      <trkpt lat="50.5562" lon="6.24">
        <ele>381</ele>
        <time>2015-11-28T13:11:58Z</time>
      </trkpt>
      <trkpt lat="50.55624" lon="6.24004">
        <ele>380</ele>
        <time>2015-11-28T13:12:09Z</time>
      </trkpt>
      <trkpt lat="50.55623" lon="6.24007">
        <ele>381</ele>
        <time>2015-11-28T13:12:19Z</time>
      </trkpt>
      <trkpt lat="50.55613" lon="6.24014">
        <ele>380</ele>
        <time>2015-11-28T13:12:29Z</time>
      </trkpt>
      <trkpt lat="50.55616" lon="6.24012">
        <ele>380</ele>
        <time>2015-11-28T13:12:39Z</time>
      </trkpt>
      <trkpt lat="50.55627" lon="6.24009">
        <ele>381</ele>
        <time>2015-11-28T13:12:50Z</time>
      </trkpt>
      <trkpt lat="50.55634" lon="6.24006">
        <ele>381</ele>
        <time>2015-11-28T13:13:00Z</time>
      </trkpt>
      <trkpt lat="50.55646" lon="6.24005">
        <ele>382</ele>
        <time>2015-11-28T13:13:11Z</time>
      </trkpt>
      <trkpt lat="50.55653" lon="6.24006">
        <ele>382</ele>
        <time>2015-11-28T13:13:21Z</time>
      </trkpt>
      <trkpt lat="50.5566" lon="6.24004">
        <ele>383</ele>
        <time>2015-11-28T13:13:32Z</time>
      </trkpt>
      <trkpt lat="50.55674" lon="6.24001">
        <ele>383</ele>
        <time>2015-11-28T13:13:43Z</time>
      </trkpt>
      <trkpt lat="50.55682" lon="6.23998">
        <ele>383</ele>
        <time>2015-11-28T13:13:53Z</time>
      </trkpt>
      <trkpt lat="50.55689" lon="6.23998">
        <ele>384</ele>
        <time>2015-11-28T13:14:04Z</time>
      </trkpt>
      <trkpt lat="50.55694" lon="6.24003">
        <ele>384</ele>
        <time>2015-11-28T13:14:15Z</time>
      </trkpt>
      <trkpt lat="50.55705" lon="6.24005">
        <ele>384</ele>
        <time>2015-11-28T13:14:26Z</time>
      </trkpt>
      <trkpt lat="50.55716" lon="6.24008">
        <ele>386</ele>
        <time>2015-11-28T13:14:37Z</time>
      </trkpt>
      <trkpt lat="50.55725" lon="6.24011">
        <ele>386</ele>
        <time>2015-11-28T13:14:48Z</time>
      </trkpt>
      <trkpt lat="50.55727" lon="6.24011">
        <ele>386</ele>
        <time>2015-11-28T13:14:58Z</time>
      </trkpt>
      <trkpt lat="50.55726" lon="6.24009">
        <ele>386</ele>
        <time>2015-11-28T13:15:09Z</time>
      </trkpt>
      <trkpt lat="50.55725" lon="6.2401">
        <ele>386</ele>
        <time>2015-11-28T13:15:21Z</time>
      </trkpt>
      <trkpt lat="50.55723" lon="6.24008">
        <ele>386</ele>
        <time>2015-11-28T13:15:31Z</time>
      </trkpt>
      <trkpt lat="50.55722" lon="6.24006">
        <ele>387</ele>
        <time>2015-11-28T13:15:42Z</time>
      </trkpt>
      <trkpt lat="50.55722" lon="6.24">
        <ele>387</ele>
        <time>2015-11-28T13:15:53Z</time>
      </trkpt>
      <trkpt lat="50.55723" lon="6.24006">
        <ele>386</ele>
        <time>2015-11-28T13:16:03Z</time>
      </trkpt>
      <trkpt lat="50.55724" lon="6.24008">
        <ele>386</ele>
        <time>2015-11-28T13:16:14Z</time>
      </trkpt>
      <trkpt lat="50.55727" lon="6.24009">
        <ele>387</ele>
        <time>2015-11-28T13:16:24Z</time>
      </trkpt>
      <trkpt lat="50.55728" lon="6.24005">
        <ele>387</ele>
        <time>2015-11-28T13:16:35Z</time>
      </trkpt>
      <trkpt lat="50.55727" lon="6.23997">
        <ele>387</ele>
        <time>2015-11-28T13:16:46Z</time>
      </trkpt>
      <trkpt lat="50.55729" lon="6.23992">
        <ele>387</ele>
        <time>2015-11-28T13:16:57Z</time>
      </trkpt>
      <trkpt lat="50.5573" lon="6.2399">
        <ele>387</ele>
        <time>2015-11-28T13:17:07Z</time>
      </trkpt>
      <trkpt lat="50.55729" lon="6.23986">
        <ele>387</ele>
        <time>2015-11-28T13:17:17Z</time>
      </trkpt>
      <trkpt lat="50.55724" lon="6.23992">
        <ele>387</ele>
        <time>2015-11-28T13:17:28Z</time>
      </trkpt>
      <trkpt lat="50.55718" lon="6.23994">
        <ele>385</ele>
        <time>2015-11-28T13:17:39Z</time>
      </trkpt>
      <trkpt lat="50.55716" lon="6.24">
        <ele>386</ele>
        <time>2015-11-28T13:17:50Z</time>
      </trkpt>
      <trkpt lat="50.55714" lon="6.23999">
        <ele>386</ele>
        <time>2015-11-28T13:18:00Z</time>
      </trkpt>
      <trkpt lat="50.55719" lon="6.24002">
        <ele>386</ele>
        <time>2015-11-28T13:18:11Z</time>
      </trkpt>
      <trkpt lat="50.55719" lon="6.24009">
        <ele>385</ele>
        <time>2015-11-28T13:18:22Z</time>
      </trkpt>
      <trkpt lat="50.55709" lon="6.24012">
        <ele>386</ele>
        <time>2015-11-28T13:18:32Z</time>
      </trkpt>
      <trkpt lat="50.557" lon="6.2401">
        <ele>385</ele>
        <time>2015-11-28T13:18:43Z</time>
      </trkpt>
      <trkpt lat="50.55692" lon="6.24005">
        <ele>384</ele>
        <time>2015-11-28T13:18:53Z</time>
      </trkpt>
      <trkpt lat="50.55684" lon="6.23999">
        <ele>383</ele>
        <time>2015-11-28T13:19:03Z</time>
      </trkpt>
      <trkpt lat="50.55673" lon="6.23996">
        <ele>382</ele>
        <time>2015-11-28T13:19:13Z</time>
      </trkpt>
      <trkpt lat="50.55667" lon="6.23997">
        <ele>383</ele>
        <time>2015-11-28T13:19:24Z</time>
      </trkpt>
      <trkpt lat="50.55653" lon="6.23994">
        <ele>381</ele>
        <time>2015-11-28T13:19:35Z</time>
      </trkpt>
      <trkpt lat="50.55648" lon="6.24001">
        <ele>381</ele>
        <time>2015-11-28T13:19:45Z</time>
      </trkpt>
      <trkpt lat="50.55637" lon="6.24001">
        <ele>380</ele>
        <time>2015-11-28T13:19:55Z</time>
      </trkpt>
      <trkpt lat="50.55639" lon="6.23987">
        <ele>380</ele>
        <time>2015-11-28T13:20:05Z</time>
      </trkpt>
      <trkpt lat="50.55647" lon="6.23972">
        <ele>380</ele>
        <time>2015-11-28T13:20:16Z</time>
      </trkpt>
      <trkpt lat="50.5563" lon="6.23975">
        <ele>380</ele>
        <time>2015-11-28T13:20:26Z</time>
      </trkpt>
      <trkpt lat="50.55618" lon="6.23984">
        <ele>380</ele>
        <time>2015-11-28T13:20:36Z</time>
      </trkpt>
      <trkpt lat="50.55613" lon="6.23993">
        <ele>380</ele>
        <time>2015-11-28T13:20:47Z</time>
      </trkpt>
      <trkpt lat="50.55611" lon="6.24">
        <ele>379</ele>
        <time>2015-11-28T13:20:58Z</time>
      </trkpt>
      <trkpt lat="50.556" lon="6.24001">
        <ele>378</ele>
        <time>2015-11-28T13:21:08Z</time>
      </trkpt>
      <trkpt lat="50.55592" lon="6.23999">
        <ele>378</ele>
        <time>2015-11-28T13:21:18Z</time>
      </trkpt>
      <trkpt lat="50.55582" lon="6.24004">
        <ele>377</ele>
        <time>2015-11-28T13:21:29Z</time>
      </trkpt>
      <trkpt lat="50.55575" lon="6.2401">
        <ele>377</ele>
        <time>2015-11-28T13:21:40Z</time>
      </trkpt>
      <trkpt lat="50.55571" lon="6.24014">
        <ele>376</ele>
        <time>2015-11-28T13:21:50Z</time>
      </trkpt>
      <trkpt lat="50.55564" lon="6.24023">
        <ele>376</ele>
        <time>2015-11-28T13:22:01Z</time>
      </trkpt>
      <trkpt lat="50.55558" lon="6.24027">
        <ele>377</ele>
        <time>2015-11-28T13:22:11Z</time>
      </trkpt>
      <trkpt lat="50.55559" lon="6.24027">
        <ele>377</ele>
        <time>2015-11-28T13:22:21Z</time>
      </trkpt>
      <trkpt lat="50.55564" lon="6.24022">
        <ele>377</ele>
        <time>2015-11-28T13:22:32Z</time>
      </trkpt>
      <trkpt lat="50.5557" lon="6.24019">
        <ele>377</ele>
        <time>2015-11-28T13:22:42Z</time>
      </trkpt>
      <trkpt lat="50.55568" lon="6.24016">
        <ele>377</ele>
        <time>2015-11-28T13:22:52Z</time>
      </trkpt>
      <trkpt lat="50.55556" lon="6.24012">
        <ele>376</ele>
        <time>2015-11-28T13:23:02Z</time>
      </trkpt>
      <trkpt lat="50.55548" lon="6.24005">
        <ele>375</ele>
        <time>2015-11-28T13:23:13Z</time>
      </trkpt>
      <trkpt lat="50.55545" lon="6.24001">
        <ele>375</ele>
        <time>2015-11-28T13:23:23Z</time>
      </trkpt>
      <trkpt lat="50.55542" lon="6.24001">
        <ele>375</ele>
        <time>2015-11-28T13:23:34Z</time>
      </trkpt>
      <trkpt lat="50.55538" lon="6.23997">
        <ele>376</ele>
        <time>2015-11-28T13:23:44Z</time>
      </trkpt>
      <trkpt lat="50.55533" lon="6.23998">
        <ele>375</ele>
        <time>2015-11-28T13:23:54Z</time>
      </trkpt>
      <trkpt lat="50.55527" lon="6.24006">
        <ele>375</ele>
        <time>2015-11-28T13:24:05Z</time>
      </trkpt>
      <trkpt lat="50.55523" lon="6.24011">
        <ele>374</ele>
        <time>2015-11-28T13:24:16Z</time>
      </trkpt>
      <trkpt lat="50.55518" lon="6.24018">
        <ele>374</ele>
        <time>2015-11-28T13:24:26Z</time>
      </trkpt>
      <trkpt lat="50.55515" lon="6.24022">
        <ele>373</ele>
        <time>2015-11-28T13:24:36Z</time>
      </trkpt>
      <trkpt lat="50.55508" lon="6.24032">
        <ele>373</ele>
        <time>2015-11-28T13:24:47Z</time>
      </trkpt>
      <trkpt lat="50.55502" lon="6.24043">
        <ele>372</ele>
        <time>2015-11-28T13:24:58Z</time>
      </trkpt>
      <trkpt lat="50.55496" lon="6.24055">
        <ele>372</ele>
        <time>2015-11-28T13:25:09Z</time>
      </trkpt>
      <trkpt lat="50.55484" lon="6.24064">
        <ele>372</ele>
        <time>2015-11-28T13:25:19Z</time>
      </trkpt>
      <trkpt lat="50.5548" lon="6.24073">
        <ele>372</ele>
        <time>2015-11-28T13:25:30Z</time>
      </trkpt>
      <trkpt lat="50.55476" lon="6.24072">
        <ele>373</ele>
        <time>2015-11-28T13:25:41Z</time>
      </trkpt>
      <trkpt lat="50.55473" lon="6.24072">
        <ele>373</ele>
        <time>2015-11-28T13:25:51Z</time>
      </trkpt>
      <trkpt lat="50.55472" lon="6.24074">
        <ele>373</ele>
        <time>2015-11-28T13:26:01Z</time>
      </trkpt>
      <trkpt lat="50.55468" lon="6.24078">
        <ele>373</ele>
        <time>2015-11-28T13:26:12Z</time>
      </trkpt>
      <trkpt lat="50.55458" lon="6.24077">
        <ele>373</ele>
        <time>2015-11-28T13:26:23Z</time>
      </trkpt>
      <trkpt lat="50.55457" lon="6.2408">
        <ele>373</ele>
        <time>2015-11-28T13:26:33Z</time>
      </trkpt>
      <trkpt lat="50.55454" lon="6.24088">
        <ele>372</ele>
        <time>2015-11-28T13:26:44Z</time>
      </trkpt>
      <trkpt lat="50.55451" lon="6.24095">
        <ele>373</ele>
        <time>2015-11-28T13:26:55Z</time>
      </trkpt>
      <trkpt lat="50.55444" lon="6.24098">
        <ele>373</ele>
        <time>2015-11-28T13:27:05Z</time>
      </trkpt>
      <trkpt lat="50.55436" lon="6.24106">
        <ele>373</ele>
        <time>2015-11-28T13:27:15Z</time>
      </trkpt>
      <trkpt lat="50.55427" lon="6.24112">
        <ele>373</ele>
        <time>2015-11-28T13:27:26Z</time>
      </trkpt>
      <trkpt lat="50.55418" lon="6.24116">
        <ele>372</ele>
        <time>2015-11-28T13:27:36Z</time>
      </trkpt>
      <trkpt lat="50.5541" lon="6.24123">
        <ele>372</ele>
        <time>2015-11-28T13:27:46Z</time>
      </trkpt>
      <trkpt lat="50.55404" lon="6.24129">
        <ele>372</ele>
        <time>2015-11-28T13:27:57Z</time>
      </trkpt>
      <trkpt lat="50.55397" lon="6.24132">
        <ele>372</ele>
        <time>2015-11-28T13:28:08Z</time>
      </trkpt>
      <trkpt lat="50.55391" lon="6.24135">
        <ele>372</ele>
        <time>2015-11-28T13:28:18Z</time>
      </trkpt>
      <trkpt lat="50.55387" lon="6.24137">
        <ele>372</ele>
        <time>2015-11-28T13:28:29Z</time>
      </trkpt>
      <trkpt lat="50.5538" lon="6.24139">
        <ele>372</ele>
        <time>2015-11-28T13:28:40Z</time>
      </trkpt>
      <trkpt lat="50.55373" lon="6.24147">
        <ele>372</ele>
        <time>2015-11-28T13:28:53Z</time>
      </trkpt>
      <trkpt lat="50.55369" lon="6.24151">
        <ele>372</ele>
        <time>2015-11-28T13:29:03Z</time>
      </trkpt>
      <trkpt lat="50.55367" lon="6.24152">
        <ele>372</ele>
        <time>2015-11-28T13:29:13Z</time>
      </trkpt>
      <trkpt lat="50.5537" lon="6.24157">
        <ele>372</ele>
        <time>2015-11-28T13:29:24Z</time>
      </trkpt>
      <trkpt lat="50.55377" lon="6.24161">
        <ele>372</ele>
        <time>2015-11-28T13:29:34Z</time>
      </trkpt>
      <trkpt lat="50.55375" lon="6.24159">
        <ele>372</ele>
        <time>2015-11-28T13:29:45Z</time>
      </trkpt>
      <trkpt lat="50.55371" lon="6.24158">
        <ele>372</ele>
        <time>2015-11-28T13:29:56Z</time>
      </trkpt>
      <trkpt lat="50.55368" lon="6.24156">
        <ele>372</ele>
        <time>2015-11-28T13:30:06Z</time>
      </trkpt>
      <trkpt lat="50.55371" lon="6.24154">
        <ele>372</ele>
        <time>2015-11-28T13:30:17Z</time>
      </trkpt>
      <trkpt lat="50.5537" lon="6.24152">
        <ele>372</ele>
        <time>2015-11-28T13:30:27Z</time>
      </trkpt>
      <trkpt lat="50.55371" lon="6.24151">
        <ele>372</ele>
        <time>2015-11-28T13:30:37Z</time>
      </trkpt>
      <trkpt lat="50.55423" lon="6.24662">
        <ele>361</ele>
        <time>2015-11-28T13:37:37Z</time>
      </trkpt>
      <trkpt lat="50.55423" lon="6.24657">
        <ele>361</ele>
        <time>2015-11-28T13:44:37Z</time>
      </trkpt>
    </trkseg>
  </trk>
</gpx>